<?xml version="1.0" encoding="UTF-8" standalone="no" ?>
<gpx xmlns="http://www.topografix.com/GPX/1/1" xmlns:xsi="http://www.w3.org/2001/XMLSchema-instance" xsi:schemaLocation="http://www.topografix.com/GPX/1/1 http://www.topografix.com/GPX/1/1/gpx.xsd" version="1.1" creator="VisuGPX - https://www.visugpx.com">
  <metadata>
    <name>Collobrières</name>
    <desc><![CDATA[passage par la chartreuse de la Verne, retour par le plateau de Lambert via le single de Ragusse et le GR 90]]></desc>
  </metadata>
  <trk>
    <name><![CDATA[2012-12-30 Collobrières]]></name>
    <trkseg>
      <trkpt lat="43.23729" lon="6.30278">
        <ele>150.734375</ele>
        <time>2012-12-30T08:04:31Z</time>
      </trkpt>
      <trkpt lat="43.23729" lon="6.30278">
        <ele>150.734375</ele>
        <time>2012-12-30T08:04:32Z</time>
      </trkpt>
      <trkpt lat="43.23729" lon="6.30278">
        <ele>150.734375</ele>
        <time>2012-12-30T08:04:33Z</time>
      </trkpt>
      <trkpt lat="43.23729" lon="6.30278">
        <ele>150.72265625</ele>
        <time>2012-12-30T08:05:09Z</time>
      </trkpt>
      <trkpt lat="43.23729" lon="6.30279">
        <ele>150.796875</ele>
        <time>2012-12-30T08:05:40Z</time>
      </trkpt>
      <trkpt lat="43.23739" lon="6.30287">
        <ele>151.8046875</ele>
        <time>2012-12-30T08:05:48Z</time>
      </trkpt>
      <trkpt lat="43.23746" lon="6.30284">
        <ele>151.8359375</ele>
        <time>2012-12-30T08:05:52Z</time>
      </trkpt>
      <trkpt lat="43.23766" lon="6.30249">
        <ele>150.08203125</ele>
        <time>2012-12-30T08:06:05Z</time>
      </trkpt>
      <trkpt lat="43.23781" lon="6.3021">
        <ele>148.72265625</ele>
        <time>2012-12-30T08:06:15Z</time>
      </trkpt>
      <trkpt lat="43.23779" lon="6.30193">
        <ele>147.8984375</ele>
        <time>2012-12-30T08:06:18Z</time>
      </trkpt>
      <trkpt lat="43.23779" lon="6.30144">
        <ele>149.00390625</ele>
        <time>2012-12-30T08:06:31Z</time>
      </trkpt>
      <trkpt lat="43.2377" lon="6.30142">
        <ele>149.10546875</ele>
        <time>2012-12-30T08:06:36Z</time>
      </trkpt>
      <trkpt lat="43.23746" lon="6.30167">
        <ele>148.671875</ele>
        <time>2012-12-30T08:06:53Z</time>
      </trkpt>
      <trkpt lat="43.23744" lon="6.30168">
        <ele>148.67578125</ele>
        <time>2012-12-30T08:06:54Z</time>
      </trkpt>
      <trkpt lat="43.23704" lon="6.30183">
        <ele>149.5625</ele>
        <time>2012-12-30T08:07:11Z</time>
      </trkpt>
      <trkpt lat="43.23683" lon="6.30192">
        <ele>149.03125</ele>
        <time>2012-12-30T08:07:17Z</time>
      </trkpt>
      <trkpt lat="43.23674" lon="6.30197">
        <ele>148.4375</ele>
        <time>2012-12-30T08:07:19Z</time>
      </trkpt>
      <trkpt lat="43.23647" lon="6.30235">
        <ele>147.65625</ele>
        <time>2012-12-30T08:07:29Z</time>
      </trkpt>
      <trkpt lat="43.23623" lon="6.30275">
        <ele>148.4375</ele>
        <time>2012-12-30T08:07:42Z</time>
      </trkpt>
      <trkpt lat="43.23594" lon="6.30314">
        <ele>150.609375</ele>
        <time>2012-12-30T08:07:58Z</time>
      </trkpt>
      <trkpt lat="43.23566" lon="6.30356">
        <ele>152.07421875</ele>
        <time>2012-12-30T08:08:17Z</time>
      </trkpt>
      <trkpt lat="43.23554" lon="6.30392">
        <ele>152.4296875</ele>
        <time>2012-12-30T08:08:30Z</time>
      </trkpt>
      <trkpt lat="43.23533" lon="6.30452">
        <ele>152.828125</ele>
        <time>2012-12-30T08:08:45Z</time>
      </trkpt>
      <trkpt lat="43.23529" lon="6.3051">
        <ele>152.39453125</ele>
        <time>2012-12-30T08:09:02Z</time>
      </trkpt>
      <trkpt lat="43.23527" lon="6.30577">
        <ele>153.375</ele>
        <time>2012-12-30T08:09:23Z</time>
      </trkpt>
      <trkpt lat="43.23528" lon="6.30639">
        <ele>154.30078125</ele>
        <time>2012-12-30T08:09:39Z</time>
      </trkpt>
      <trkpt lat="43.23532" lon="6.30699">
        <ele>155.0078125</ele>
        <time>2012-12-30T08:09:55Z</time>
      </trkpt>
      <trkpt lat="43.23528" lon="6.30738">
        <ele>155.6640625</ele>
        <time>2012-12-30T08:10:07Z</time>
      </trkpt>
      <trkpt lat="43.2352" lon="6.30797">
        <ele>156.88671875</ele>
        <time>2012-12-30T08:10:24Z</time>
      </trkpt>
      <trkpt lat="43.23512" lon="6.30852">
        <ele>157.5859375</ele>
        <time>2012-12-30T08:10:40Z</time>
      </trkpt>
      <trkpt lat="43.23506" lon="6.30905">
        <ele>160.8203125</ele>
        <time>2012-12-30T08:10:55Z</time>
      </trkpt>
      <trkpt lat="43.23515" lon="6.30948">
        <ele>163.52734375</ele>
        <time>2012-12-30T08:11:10Z</time>
      </trkpt>
      <trkpt lat="43.23529" lon="6.30978">
        <ele>166.23828125</ele>
        <time>2012-12-30T08:11:25Z</time>
      </trkpt>
      <trkpt lat="43.23569" lon="6.31003">
        <ele>166.2734375</ele>
        <time>2012-12-30T08:11:40Z</time>
      </trkpt>
      <trkpt lat="43.23587" lon="6.31014">
        <ele>166.12109375</ele>
        <time>2012-12-30T08:11:47Z</time>
      </trkpt>
      <trkpt lat="43.23628" lon="6.31035">
        <ele>166.02734375</ele>
        <time>2012-12-30T08:12:02Z</time>
      </trkpt>
      <trkpt lat="43.23642" lon="6.31028">
        <ele>164.6171875</ele>
        <time>2012-12-30T08:12:07Z</time>
      </trkpt>
      <trkpt lat="43.23655" lon="6.31012">
        <ele>162.7890625</ele>
        <time>2012-12-30T08:12:11Z</time>
      </trkpt>
      <trkpt lat="43.23671" lon="6.31001">
        <ele>161.76171875</ele>
        <time>2012-12-30T08:12:15Z</time>
      </trkpt>
      <trkpt lat="43.23688" lon="6.30998">
        <ele>160.9609375</ele>
        <time>2012-12-30T08:12:19Z</time>
      </trkpt>
      <trkpt lat="43.23718" lon="6.31">
        <ele>159.453125</ele>
        <time>2012-12-30T08:12:26Z</time>
      </trkpt>
      <trkpt lat="43.23734" lon="6.30985">
        <ele>157.81640625</ele>
        <time>2012-12-30T08:12:30Z</time>
      </trkpt>
      <trkpt lat="43.23776" lon="6.30941">
        <ele>155.15625</ele>
        <time>2012-12-30T08:12:40Z</time>
      </trkpt>
      <trkpt lat="43.23789" lon="6.30928">
        <ele>155</ele>
        <time>2012-12-30T08:12:44Z</time>
      </trkpt>
      <trkpt lat="43.238" lon="6.30933">
        <ele>155</ele>
        <time>2012-12-30T08:12:49Z</time>
      </trkpt>
      <trkpt lat="43.2383" lon="6.30971">
        <ele>155.13671875</ele>
        <time>2012-12-30T08:13:02Z</time>
      </trkpt>
      <trkpt lat="43.23859" lon="6.31043">
        <ele>155.7734375</ele>
        <time>2012-12-30T08:13:20Z</time>
      </trkpt>
      <trkpt lat="43.23849" lon="6.31115">
        <ele>156.8046875</ele>
        <time>2012-12-30T08:13:37Z</time>
      </trkpt>
      <trkpt lat="43.23806" lon="6.3116">
        <ele>156.70703125</ele>
        <time>2012-12-30T08:13:54Z</time>
      </trkpt>
      <trkpt lat="43.2376" lon="6.31211">
        <ele>156.87890625</ele>
        <time>2012-12-30T08:14:13Z</time>
      </trkpt>
      <trkpt lat="43.23714" lon="6.31256">
        <ele>157.0546875</ele>
        <time>2012-12-30T08:14:31Z</time>
      </trkpt>
      <trkpt lat="43.23683" lon="6.31331">
        <ele>159.578125</ele>
        <time>2012-12-30T08:14:51Z</time>
      </trkpt>
      <trkpt lat="43.23691" lon="6.3143">
        <ele>161.1015625</ele>
        <time>2012-12-30T08:15:13Z</time>
      </trkpt>
      <trkpt lat="43.23713" lon="6.31549">
        <ele>161.703125</ele>
        <time>2012-12-30T08:15:39Z</time>
      </trkpt>
      <trkpt lat="43.23733" lon="6.3166">
        <ele>162.22265625</ele>
        <time>2012-12-30T08:16:05Z</time>
      </trkpt>
      <trkpt lat="43.23762" lon="6.31805">
        <ele>162</ele>
        <time>2012-12-30T08:16:38Z</time>
      </trkpt>
      <trkpt lat="43.23783" lon="6.31926">
        <ele>163.1796875</ele>
        <time>2012-12-30T08:17:04Z</time>
      </trkpt>
      <trkpt lat="43.23824" lon="6.32029">
        <ele>165.8359375</ele>
        <time>2012-12-30T08:17:28Z</time>
      </trkpt>
      <trkpt lat="43.23824" lon="6.32097">
        <ele>168.328125</ele>
        <time>2012-12-30T08:17:43Z</time>
      </trkpt>
      <trkpt lat="43.23834" lon="6.32163">
        <ele>171.60546875</ele>
        <time>2012-12-30T08:17:59Z</time>
      </trkpt>
      <trkpt lat="43.2387" lon="6.32171">
        <ele>170.90234375</ele>
        <time>2012-12-30T08:18:10Z</time>
      </trkpt>
      <trkpt lat="43.23936" lon="6.32153">
        <ele>170.0703125</ele>
        <time>2012-12-30T08:18:28Z</time>
      </trkpt>
      <trkpt lat="43.24004" lon="6.32158">
        <ele>173.6328125</ele>
        <time>2012-12-30T08:18:48Z</time>
      </trkpt>
      <trkpt lat="43.24051" lon="6.32157">
        <ele>180.21875</ele>
        <time>2012-12-30T08:19:03Z</time>
      </trkpt>
      <trkpt lat="43.24105" lon="6.32128">
        <ele>181.01953125</ele>
        <time>2012-12-30T08:19:21Z</time>
      </trkpt>
      <trkpt lat="43.24155" lon="6.32116">
        <ele>178.76953125</ele>
        <time>2012-12-30T08:19:36Z</time>
      </trkpt>
      <trkpt lat="43.24199" lon="6.32122">
        <ele>177.1875</ele>
        <time>2012-12-30T08:19:49Z</time>
      </trkpt>
      <trkpt lat="43.24227" lon="6.32139">
        <ele>177.359375</ele>
        <time>2012-12-30T08:19:58Z</time>
      </trkpt>
      <trkpt lat="43.24255" lon="6.32177">
        <ele>177.6015625</ele>
        <time>2012-12-30T08:20:11Z</time>
      </trkpt>
      <trkpt lat="43.24282" lon="6.32225">
        <ele>176.94921875</ele>
        <time>2012-12-30T08:20:26Z</time>
      </trkpt>
      <trkpt lat="43.24298" lon="6.32288">
        <ele>177.5546875</ele>
        <time>2012-12-30T08:20:43Z</time>
      </trkpt>
      <trkpt lat="43.24283" lon="6.32386">
        <ele>179.1640625</ele>
        <time>2012-12-30T08:21:06Z</time>
      </trkpt>
      <trkpt lat="43.24274" lon="6.3245">
        <ele>181.09375</ele>
        <time>2012-12-30T08:21:24Z</time>
      </trkpt>
      <trkpt lat="43.24262" lon="6.3251">
        <ele>181.578125</ele>
        <time>2012-12-30T08:21:41Z</time>
      </trkpt>
      <trkpt lat="43.2426" lon="6.32563">
        <ele>181.1015625</ele>
        <time>2012-12-30T08:21:55Z</time>
      </trkpt>
      <trkpt lat="43.24264" lon="6.32583">
        <ele>180.0234375</ele>
        <time>2012-12-30T08:21:59Z</time>
      </trkpt>
      <trkpt lat="43.24255" lon="6.32623">
        <ele>179.67578125</ele>
        <time>2012-12-30T08:22:05Z</time>
      </trkpt>
      <trkpt lat="43.24245" lon="6.32636">
        <ele>180.34375</ele>
        <time>2012-12-30T08:22:07Z</time>
      </trkpt>
      <trkpt lat="43.24224" lon="6.32659">
        <ele>180.94140625</ele>
        <time>2012-12-30T08:22:11Z</time>
      </trkpt>
      <trkpt lat="43.24172" lon="6.32688">
        <ele>181.29296875</ele>
        <time>2012-12-30T08:22:20Z</time>
      </trkpt>
      <trkpt lat="43.24144" lon="6.32724">
        <ele>179.125</ele>
        <time>2012-12-30T08:22:28Z</time>
      </trkpt>
      <trkpt lat="43.2412" lon="6.32802">
        <ele>183.2109375</ele>
        <time>2012-12-30T08:22:44Z</time>
      </trkpt>
      <trkpt lat="43.24124" lon="6.3285">
        <ele>187.1953125</ele>
        <time>2012-12-30T08:22:56Z</time>
      </trkpt>
      <trkpt lat="43.24141" lon="6.32873">
        <ele>187.65234375</ele>
        <time>2012-12-30T08:23:04Z</time>
      </trkpt>
      <trkpt lat="43.24169" lon="6.32898">
        <ele>189.05078125</ele>
        <time>2012-12-30T08:23:15Z</time>
      </trkpt>
      <trkpt lat="43.24213" lon="6.32944">
        <ele>187.640625</ele>
        <time>2012-12-30T08:23:33Z</time>
      </trkpt>
      <trkpt lat="43.24227" lon="6.32987">
        <ele>185.9375</ele>
        <time>2012-12-30T08:23:46Z</time>
      </trkpt>
      <trkpt lat="43.24219" lon="6.33033">
        <ele>185.78125</ele>
        <time>2012-12-30T08:24:00Z</time>
      </trkpt>
      <trkpt lat="43.24175" lon="6.33066">
        <ele>189.50390625</ele>
        <time>2012-12-30T08:24:15Z</time>
      </trkpt>
      <trkpt lat="43.24142" lon="6.33124">
        <ele>190.58203125</ele>
        <time>2012-12-30T08:24:32Z</time>
      </trkpt>
      <trkpt lat="43.24118" lon="6.33192">
        <ele>192.02734375</ele>
        <time>2012-12-30T08:24:50Z</time>
      </trkpt>
      <trkpt lat="43.24098" lon="6.33254">
        <ele>194.65625</ele>
        <time>2012-12-30T08:25:06Z</time>
      </trkpt>
      <trkpt lat="43.24095" lon="6.33311">
        <ele>193.265625</ele>
        <time>2012-12-30T08:25:21Z</time>
      </trkpt>
      <trkpt lat="43.24086" lon="6.33358">
        <ele>191.71875</ele>
        <time>2012-12-30T08:25:35Z</time>
      </trkpt>
      <trkpt lat="43.2405" lon="6.33392">
        <ele>196.0390625</ele>
        <time>2012-12-30T08:25:52Z</time>
      </trkpt>
      <trkpt lat="43.24002" lon="6.33381">
        <ele>203.1015625</ele>
        <time>2012-12-30T08:26:11Z</time>
      </trkpt>
      <trkpt lat="43.23963" lon="6.3338">
        <ele>206.25390625</ele>
        <time>2012-12-30T08:26:28Z</time>
      </trkpt>
      <trkpt lat="43.23923" lon="6.33403">
        <ele>206.703125</ele>
        <time>2012-12-30T08:26:45Z</time>
      </trkpt>
      <trkpt lat="43.23896" lon="6.33414">
        <ele>207.58203125</ele>
        <time>2012-12-30T08:26:56Z</time>
      </trkpt>
      <trkpt lat="43.23888" lon="6.33419">
        <ele>207.46484375</ele>
        <time>2012-12-30T08:27:00Z</time>
      </trkpt>
      <trkpt lat="43.23865" lon="6.33431">
        <ele>213.25</ele>
        <time>2012-12-30T08:27:10Z</time>
      </trkpt>
      <trkpt lat="43.23808" lon="6.33423">
        <ele>216.87890625</ele>
        <time>2012-12-30T08:27:35Z</time>
      </trkpt>
      <trkpt lat="43.23763" lon="6.33427">
        <ele>220.94921875</ele>
        <time>2012-12-30T08:27:54Z</time>
      </trkpt>
      <trkpt lat="43.23719" lon="6.33426">
        <ele>223.58203125</ele>
        <time>2012-12-30T08:28:13Z</time>
      </trkpt>
      <trkpt lat="43.2368" lon="6.33429">
        <ele>225.83984375</ele>
        <time>2012-12-30T08:28:30Z</time>
      </trkpt>
      <trkpt lat="43.2369" lon="6.33465">
        <ele>230.703125</ele>
        <time>2012-12-30T08:28:44Z</time>
      </trkpt>
      <trkpt lat="43.23726" lon="6.33478">
        <ele>235.16796875</ele>
        <time>2012-12-30T08:29:00Z</time>
      </trkpt>
      <trkpt lat="43.23756" lon="6.33483">
        <ele>237.48828125</ele>
        <time>2012-12-30T08:29:14Z</time>
      </trkpt>
      <trkpt lat="43.2379" lon="6.33492">
        <ele>240.46875</ele>
        <time>2012-12-30T08:29:29Z</time>
      </trkpt>
      <trkpt lat="43.23824" lon="6.33508">
        <ele>245.09375</ele>
        <time>2012-12-30T08:29:44Z</time>
      </trkpt>
      <trkpt lat="43.2385" lon="6.33517">
        <ele>247.69921875</ele>
        <time>2012-12-30T08:29:55Z</time>
      </trkpt>
      <trkpt lat="43.23888" lon="6.3352">
        <ele>248.4296875</ele>
        <time>2012-12-30T08:30:11Z</time>
      </trkpt>
      <trkpt lat="43.23933" lon="6.33521">
        <ele>247.15625</ele>
        <time>2012-12-30T08:30:29Z</time>
      </trkpt>
      <trkpt lat="43.23969" lon="6.33524">
        <ele>243.83984375</ele>
        <time>2012-12-30T08:30:44Z</time>
      </trkpt>
      <trkpt lat="43.23999" lon="6.3354">
        <ele>243.171875</ele>
        <time>2012-12-30T08:30:57Z</time>
      </trkpt>
      <trkpt lat="43.24027" lon="6.33558">
        <ele>235.66796875</ele>
        <time>2012-12-30T08:31:11Z</time>
      </trkpt>
      <trkpt lat="43.24043" lon="6.33608">
        <ele>231.5</ele>
        <time>2012-12-30T08:31:28Z</time>
      </trkpt>
      <trkpt lat="43.24043" lon="6.33615">
        <ele>231.58984375</ele>
        <time>2012-12-30T08:31:30Z</time>
      </trkpt>
      <trkpt lat="43.24043" lon="6.33657">
        <ele>230.51953125</ele>
        <time>2012-12-30T08:31:42Z</time>
      </trkpt>
      <trkpt lat="43.24042" lon="6.33664">
        <ele>230.47265625</ele>
        <time>2012-12-30T08:31:44Z</time>
      </trkpt>
      <trkpt lat="43.24018" lon="6.33715">
        <ele>235.890625</ele>
        <time>2012-12-30T08:32:03Z</time>
      </trkpt>
      <trkpt lat="43.23981" lon="6.33759">
        <ele>244.3515625</ele>
        <time>2012-12-30T08:32:23Z</time>
      </trkpt>
      <trkpt lat="43.23953" lon="6.33782">
        <ele>253.8125</ele>
        <time>2012-12-30T08:32:36Z</time>
      </trkpt>
      <trkpt lat="43.23949" lon="6.33793">
        <ele>255.328125</ele>
        <time>2012-12-30T08:32:40Z</time>
      </trkpt>
      <trkpt lat="43.23958" lon="6.33836">
        <ele>253.3671875</ele>
        <time>2012-12-30T08:32:53Z</time>
      </trkpt>
      <trkpt lat="43.23976" lon="6.33874">
        <ele>252.953125</ele>
        <time>2012-12-30T08:33:06Z</time>
      </trkpt>
      <trkpt lat="43.23994" lon="6.33922">
        <ele>254.23046875</ele>
        <time>2012-12-30T08:33:22Z</time>
      </trkpt>
      <trkpt lat="43.23994" lon="6.33937">
        <ele>257.8515625</ele>
        <time>2012-12-30T08:33:27Z</time>
      </trkpt>
      <trkpt lat="43.23995" lon="6.33949">
        <ele>259.75</ele>
        <time>2012-12-30T08:33:31Z</time>
      </trkpt>
      <trkpt lat="43.23997" lon="6.33964">
        <ele>261.41015625</ele>
        <time>2012-12-30T08:33:37Z</time>
      </trkpt>
      <trkpt lat="43.24022" lon="6.34025">
        <ele>258.55078125</ele>
        <time>2012-12-30T08:33:58Z</time>
      </trkpt>
      <trkpt lat="43.24025" lon="6.34072">
        <ele>251.54296875</ele>
        <time>2012-12-30T08:34:13Z</time>
      </trkpt>
      <trkpt lat="43.23996" lon="6.34109">
        <ele>258.4296875</ele>
        <time>2012-12-30T08:34:29Z</time>
      </trkpt>
      <trkpt lat="43.23965" lon="6.34159">
        <ele>264.71875</ele>
        <time>2012-12-30T08:34:50Z</time>
      </trkpt>
      <trkpt lat="43.23948" lon="6.34177">
        <ele>269.32421875</ele>
        <time>2012-12-30T08:34:59Z</time>
      </trkpt>
      <trkpt lat="43.23946" lon="6.34194">
        <ele>271.8125</ele>
        <time>2012-12-30T08:35:04Z</time>
      </trkpt>
      <trkpt lat="43.23958" lon="6.3425">
        <ele>284.28515625</ele>
        <time>2012-12-30T08:35:22Z</time>
      </trkpt>
      <trkpt lat="43.23989" lon="6.34252">
        <ele>281.10546875</ele>
        <time>2012-12-30T08:35:36Z</time>
      </trkpt>
      <trkpt lat="43.2403" lon="6.34267">
        <ele>271.8984375</ele>
        <time>2012-12-30T08:35:53Z</time>
      </trkpt>
      <trkpt lat="43.2404" lon="6.34313">
        <ele>268.78125</ele>
        <time>2012-12-30T08:36:07Z</time>
      </trkpt>
      <trkpt lat="43.24032" lon="6.34381">
        <ele>269.08984375</ele>
        <time>2012-12-30T08:36:28Z</time>
      </trkpt>
      <trkpt lat="43.24007" lon="6.34423">
        <ele>274.6796875</ele>
        <time>2012-12-30T08:36:44Z</time>
      </trkpt>
      <trkpt lat="43.23985" lon="6.34461">
        <ele>281.3203125</ele>
        <time>2012-12-30T08:37:00Z</time>
      </trkpt>
      <trkpt lat="43.23981" lon="6.345">
        <ele>282.12109375</ele>
        <time>2012-12-30T08:37:14Z</time>
      </trkpt>
      <trkpt lat="43.23981" lon="6.34558">
        <ele>289.3515625</ele>
        <time>2012-12-30T08:37:34Z</time>
      </trkpt>
      <trkpt lat="43.23996" lon="6.34599">
        <ele>289.37109375</ele>
        <time>2012-12-30T08:37:49Z</time>
      </trkpt>
      <trkpt lat="43.24007" lon="6.3465">
        <ele>288.5234375</ele>
        <time>2012-12-30T08:38:08Z</time>
      </trkpt>
      <trkpt lat="43.24008" lon="6.34692">
        <ele>287.6015625</ele>
        <time>2012-12-30T08:38:23Z</time>
      </trkpt>
      <trkpt lat="43.23995" lon="6.34748">
        <ele>287.2734375</ele>
        <time>2012-12-30T08:38:42Z</time>
      </trkpt>
      <trkpt lat="43.2396" lon="6.3478">
        <ele>299.24609375</ele>
        <time>2012-12-30T08:39:01Z</time>
      </trkpt>
      <trkpt lat="43.23965" lon="6.34814">
        <ele>300.35546875</ele>
        <time>2012-12-30T08:39:14Z</time>
      </trkpt>
      <trkpt lat="43.23984" lon="6.34866">
        <ele>296.75390625</ele>
        <time>2012-12-30T08:39:33Z</time>
      </trkpt>
      <trkpt lat="43.23989" lon="6.34921">
        <ele>291.01953125</ele>
        <time>2012-12-30T08:39:51Z</time>
      </trkpt>
      <trkpt lat="43.23958" lon="6.34946">
        <ele>295.66796875</ele>
        <time>2012-12-30T08:40:08Z</time>
      </trkpt>
      <trkpt lat="43.23918" lon="6.34959">
        <ele>302.30859375</ele>
        <time>2012-12-30T08:40:27Z</time>
      </trkpt>
      <trkpt lat="43.23883" lon="6.3498">
        <ele>309.05078125</ele>
        <time>2012-12-30T08:40:45Z</time>
      </trkpt>
      <trkpt lat="43.23875" lon="6.35017">
        <ele>309.6953125</ele>
        <time>2012-12-30T08:40:58Z</time>
      </trkpt>
      <trkpt lat="43.23875" lon="6.35078">
        <ele>314.3671875</ele>
        <time>2012-12-30T08:41:19Z</time>
      </trkpt>
      <trkpt lat="43.23883" lon="6.35128">
        <ele>314.1171875</ele>
        <time>2012-12-30T08:41:36Z</time>
      </trkpt>
      <trkpt lat="43.23884" lon="6.35185">
        <ele>313.77734375</ele>
        <time>2012-12-30T08:41:54Z</time>
      </trkpt>
      <trkpt lat="43.23876" lon="6.35244">
        <ele>316.76953125</ele>
        <time>2012-12-30T08:42:13Z</time>
      </trkpt>
      <trkpt lat="43.23867" lon="6.35301">
        <ele>320.0234375</ele>
        <time>2012-12-30T08:42:31Z</time>
      </trkpt>
      <trkpt lat="43.23865" lon="6.35351">
        <ele>320.40234375</ele>
        <time>2012-12-30T08:42:47Z</time>
      </trkpt>
      <trkpt lat="43.23862" lon="6.35406">
        <ele>323.66015625</ele>
        <time>2012-12-30T08:43:05Z</time>
      </trkpt>
      <trkpt lat="43.2385" lon="6.35467">
        <ele>333.5546875</ele>
        <time>2012-12-30T08:43:25Z</time>
      </trkpt>
      <trkpt lat="43.23853" lon="6.35515">
        <ele>342.765625</ele>
        <time>2012-12-30T08:43:42Z</time>
      </trkpt>
      <trkpt lat="43.23878" lon="6.35519">
        <ele>347.05859375</ele>
        <time>2012-12-30T08:43:55Z</time>
      </trkpt>
      <trkpt lat="43.23919" lon="6.35513">
        <ele>353.48828125</ele>
        <time>2012-12-30T08:44:15Z</time>
      </trkpt>
      <trkpt lat="43.23939" lon="6.35498">
        <ele>352.76171875</ele>
        <time>2012-12-30T08:44:27Z</time>
      </trkpt>
      <trkpt lat="43.23942" lon="6.35507">
        <ele>355.30078125</ele>
        <time>2012-12-30T08:44:32Z</time>
      </trkpt>
      <trkpt lat="43.23912" lon="6.35531">
        <ele>356.6640625</ele>
        <time>2012-12-30T08:44:49Z</time>
      </trkpt>
      <trkpt lat="43.2388" lon="6.35553">
        <ele>354.4296875</ele>
        <time>2012-12-30T08:45:08Z</time>
      </trkpt>
      <trkpt lat="43.2386" lon="6.35567">
        <ele>353.2890625</ele>
        <time>2012-12-30T08:45:19Z</time>
      </trkpt>
      <trkpt lat="43.23834" lon="6.35584">
        <ele>352.6953125</ele>
        <time>2012-12-30T08:45:33Z</time>
      </trkpt>
      <trkpt lat="43.23809" lon="6.35605">
        <ele>351.6875</ele>
        <time>2012-12-30T08:45:51Z</time>
      </trkpt>
      <trkpt lat="43.23802" lon="6.35609">
        <ele>351.375</ele>
        <time>2012-12-30T08:46:04Z</time>
      </trkpt>
      <trkpt lat="43.23802" lon="6.35609">
        <ele>351.33203125</ele>
        <time>2012-12-30T08:46:05Z</time>
      </trkpt>
      <trkpt lat="43.23798" lon="6.35605">
        <ele>351.1171875</ele>
        <time>2012-12-30T08:46:22Z</time>
      </trkpt>
      <trkpt lat="43.23798" lon="6.35605">
        <ele>351.10546875</ele>
        <time>2012-12-30T08:50:51Z</time>
      </trkpt>
      <trkpt lat="43.23797" lon="6.35609">
        <ele>351.06640625</ele>
        <time>2012-12-30T08:51:11Z</time>
      </trkpt>
      <trkpt lat="43.23795" lon="6.35616">
        <ele>350.91796875</ele>
        <time>2012-12-30T08:51:24Z</time>
      </trkpt>
      <trkpt lat="43.23787" lon="6.35651">
        <ele>348.4765625</ele>
        <time>2012-12-30T08:51:36Z</time>
      </trkpt>
      <trkpt lat="43.23791" lon="6.35671">
        <ele>347.125</ele>
        <time>2012-12-30T08:51:44Z</time>
      </trkpt>
      <trkpt lat="43.23791" lon="6.35665">
        <ele>347.6171875</ele>
        <time>2012-12-30T08:51:49Z</time>
      </trkpt>
      <trkpt lat="43.23796" lon="6.35626">
        <ele>350.98828125</ele>
        <time>2012-12-30T08:52:04Z</time>
      </trkpt>
      <trkpt lat="43.23805" lon="6.35626">
        <ele>351.9765625</ele>
        <time>2012-12-30T08:52:08Z</time>
      </trkpt>
      <trkpt lat="43.23813" lon="6.35623">
        <ele>352.8046875</ele>
        <time>2012-12-30T08:52:12Z</time>
      </trkpt>
      <trkpt lat="43.23816" lon="6.35625">
        <ele>353.33203125</ele>
        <time>2012-12-30T08:52:15Z</time>
      </trkpt>
      <trkpt lat="43.23813" lon="6.35623">
        <ele>352.76953125</ele>
        <time>2012-12-30T08:52:23Z</time>
      </trkpt>
      <trkpt lat="43.23808" lon="6.3563">
        <ele>352.3359375</ele>
        <time>2012-12-30T08:52:26Z</time>
      </trkpt>
      <trkpt lat="43.23802" lon="6.35635">
        <ele>351.75</ele>
        <time>2012-12-30T08:52:47Z</time>
      </trkpt>
      <trkpt lat="43.23798" lon="6.35631">
        <ele>351.21875</ele>
        <time>2012-12-30T08:52:58Z</time>
      </trkpt>
      <trkpt lat="43.23798" lon="6.35629">
        <ele>351.21875</ele>
        <time>2012-12-30T08:54:10Z</time>
      </trkpt>
      <trkpt lat="43.23798" lon="6.35629">
        <ele>351.2734375</ele>
        <time>2012-12-30T08:54:23Z</time>
      </trkpt>
      <trkpt lat="43.23798" lon="6.35624">
        <ele>351.22265625</ele>
        <time>2012-12-30T08:54:26Z</time>
      </trkpt>
      <trkpt lat="43.23792" lon="6.35628">
        <ele>350.546875</ele>
        <time>2012-12-30T08:54:31Z</time>
      </trkpt>
      <trkpt lat="43.2379" lon="6.35665">
        <ele>347.5078125</ele>
        <time>2012-12-30T08:54:44Z</time>
      </trkpt>
      <trkpt lat="43.23803" lon="6.35685">
        <ele>348.6171875</ele>
        <time>2012-12-30T08:54:48Z</time>
      </trkpt>
      <trkpt lat="43.23815" lon="6.35697">
        <ele>351.265625</ele>
        <time>2012-12-30T08:54:51Z</time>
      </trkpt>
      <trkpt lat="43.23817" lon="6.35724">
        <ele>354.1953125</ele>
        <time>2012-12-30T08:54:58Z</time>
      </trkpt>
      <trkpt lat="43.23814" lon="6.35725">
        <ele>353.83984375</ele>
        <time>2012-12-30T08:55:08Z</time>
      </trkpt>
      <trkpt lat="43.23814" lon="6.35728">
        <ele>354.1328125</ele>
        <time>2012-12-30T08:55:42Z</time>
      </trkpt>
      <trkpt lat="43.23807" lon="6.3573">
        <ele>352.609375</ele>
        <time>2012-12-30T08:55:46Z</time>
      </trkpt>
      <trkpt lat="43.23809" lon="6.35732">
        <ele>353.48046875</ele>
        <time>2012-12-30T08:55:52Z</time>
      </trkpt>
      <trkpt lat="43.23824" lon="6.35707">
        <ele>354.06640625</ele>
        <time>2012-12-30T08:56:07Z</time>
      </trkpt>
      <trkpt lat="43.23812" lon="6.35692">
        <ele>350.4921875</ele>
        <time>2012-12-30T08:56:25Z</time>
      </trkpt>
      <trkpt lat="43.2379" lon="6.35644">
        <ele>349.84765625</ele>
        <time>2012-12-30T08:56:47Z</time>
      </trkpt>
      <trkpt lat="43.23797" lon="6.35622">
        <ele>351.078125</ele>
        <time>2012-12-30T08:56:56Z</time>
      </trkpt>
      <trkpt lat="43.23788" lon="6.3562">
        <ele>350.23046875</ele>
        <time>2012-12-30T08:57:03Z</time>
      </trkpt>
      <trkpt lat="43.23785" lon="6.35627">
        <ele>349.74609375</ele>
        <time>2012-12-30T08:57:05Z</time>
      </trkpt>
      <trkpt lat="43.23781" lon="6.35656">
        <ele>347.1953125</ele>
        <time>2012-12-30T08:57:10Z</time>
      </trkpt>
      <trkpt lat="43.23789" lon="6.35682">
        <ele>346.1484375</ele>
        <time>2012-12-30T08:57:18Z</time>
      </trkpt>
      <trkpt lat="43.23793" lon="6.35687">
        <ele>346.765625</ele>
        <time>2012-12-30T08:57:20Z</time>
      </trkpt>
      <trkpt lat="43.23797" lon="6.35689">
        <ele>347.35546875</ele>
        <time>2012-12-30T08:57:23Z</time>
      </trkpt>
      <trkpt lat="43.23801" lon="6.35694">
        <ele>348.1484375</ele>
        <time>2012-12-30T08:57:27Z</time>
      </trkpt>
      <trkpt lat="43.23809" lon="6.35702">
        <ele>350.40234375</ele>
        <time>2012-12-30T08:57:39Z</time>
      </trkpt>
      <trkpt lat="43.2381" lon="6.35713">
        <ele>351.78515625</ele>
        <time>2012-12-30T08:57:44Z</time>
      </trkpt>
      <trkpt lat="43.23806" lon="6.35718">
        <ele>351.3515625</ele>
        <time>2012-12-30T08:57:57Z</time>
      </trkpt>
      <trkpt lat="43.23796" lon="6.35727">
        <ele>349.70703125</ele>
        <time>2012-12-30T08:58:11Z</time>
      </trkpt>
      <trkpt lat="43.23777" lon="6.35738">
        <ele>345.9296875</ele>
        <time>2012-12-30T08:58:20Z</time>
      </trkpt>
      <trkpt lat="43.23766" lon="6.35752">
        <ele>343.91796875</ele>
        <time>2012-12-30T08:58:31Z</time>
      </trkpt>
      <trkpt lat="43.23759" lon="6.35764">
        <ele>341.65625</ele>
        <time>2012-12-30T08:58:44Z</time>
      </trkpt>
      <trkpt lat="43.23755" lon="6.35772">
        <ele>340.3828125</ele>
        <time>2012-12-30T08:58:56Z</time>
      </trkpt>
      <trkpt lat="43.23751" lon="6.35781">
        <ele>339.21875</ele>
        <time>2012-12-30T08:59:04Z</time>
      </trkpt>
      <trkpt lat="43.2375" lon="6.35804">
        <ele>339.69140625</ele>
        <time>2012-12-30T08:59:11Z</time>
      </trkpt>
      <trkpt lat="43.23744" lon="6.35842">
        <ele>338.1640625</ele>
        <time>2012-12-30T08:59:21Z</time>
      </trkpt>
      <trkpt lat="43.23743" lon="6.35847">
        <ele>337.84765625</ele>
        <time>2012-12-30T08:59:23Z</time>
      </trkpt>
      <trkpt lat="43.23741" lon="6.35856">
        <ele>337.48046875</ele>
        <time>2012-12-30T08:59:26Z</time>
      </trkpt>
      <trkpt lat="43.23734" lon="6.35869">
        <ele>335.28515625</ele>
        <time>2012-12-30T08:59:37Z</time>
      </trkpt>
      <trkpt lat="43.23734" lon="6.35869">
        <ele>335.2890625</ele>
        <time>2012-12-30T08:59:45Z</time>
      </trkpt>
      <trkpt lat="43.23726" lon="6.35895">
        <ele>332.82421875</ele>
        <time>2012-12-30T08:59:56Z</time>
      </trkpt>
      <trkpt lat="43.23726" lon="6.35895">
        <ele>332.765625</ele>
        <time>2012-12-30T08:59:58Z</time>
      </trkpt>
      <trkpt lat="43.23722" lon="6.35899">
        <ele>332.015625</ele>
        <time>2012-12-30T09:00:03Z</time>
      </trkpt>
      <trkpt lat="43.23718" lon="6.3591">
        <ele>331.2109375</ele>
        <time>2012-12-30T09:00:08Z</time>
      </trkpt>
      <trkpt lat="43.23713" lon="6.35922">
        <ele>330.9375</ele>
        <time>2012-12-30T09:00:14Z</time>
      </trkpt>
      <trkpt lat="43.23706" lon="6.35926">
        <ele>330.06640625</ele>
        <time>2012-12-30T09:00:18Z</time>
      </trkpt>
      <trkpt lat="43.23687" lon="6.35947">
        <ele>331.08203125</ele>
        <time>2012-12-30T09:00:30Z</time>
      </trkpt>
      <trkpt lat="43.23682" lon="6.35955">
        <ele>331.78515625</ele>
        <time>2012-12-30T09:00:39Z</time>
      </trkpt>
      <trkpt lat="43.23678" lon="6.35962">
        <ele>332.69140625</ele>
        <time>2012-12-30T09:00:55Z</time>
      </trkpt>
      <trkpt lat="43.23672" lon="6.35971">
        <ele>333.57421875</ele>
        <time>2012-12-30T09:01:08Z</time>
      </trkpt>
      <trkpt lat="43.23637" lon="6.35991">
        <ele>330.9296875</ele>
        <time>2012-12-30T09:01:23Z</time>
      </trkpt>
      <trkpt lat="43.23632" lon="6.35992">
        <ele>330.3359375</ele>
        <time>2012-12-30T09:01:25Z</time>
      </trkpt>
      <trkpt lat="43.23619" lon="6.35999">
        <ele>329.26953125</ele>
        <time>2012-12-30T09:01:35Z</time>
      </trkpt>
      <trkpt lat="43.23614" lon="6.36002">
        <ele>329.06640625</ele>
        <time>2012-12-30T09:01:39Z</time>
      </trkpt>
      <trkpt lat="43.23586" lon="6.36007">
        <ele>326.84765625</ele>
        <time>2012-12-30T09:01:52Z</time>
      </trkpt>
      <trkpt lat="43.2358" lon="6.36007">
        <ele>326.13671875</ele>
        <time>2012-12-30T09:01:54Z</time>
      </trkpt>
      <trkpt lat="43.23549" lon="6.36022">
        <ele>324.37109375</ele>
        <time>2012-12-30T09:02:09Z</time>
      </trkpt>
      <trkpt lat="43.23538" lon="6.36029">
        <ele>323.7890625</ele>
        <time>2012-12-30T09:02:17Z</time>
      </trkpt>
      <trkpt lat="43.23512" lon="6.36048">
        <ele>322.734375</ele>
        <time>2012-12-30T09:02:27Z</time>
      </trkpt>
      <trkpt lat="43.23502" lon="6.36052">
        <ele>321.3984375</ele>
        <time>2012-12-30T09:02:31Z</time>
      </trkpt>
      <trkpt lat="43.23479" lon="6.36084">
        <ele>320.265625</ele>
        <time>2012-12-30T09:02:41Z</time>
      </trkpt>
      <trkpt lat="43.23471" lon="6.36117">
        <ele>320.3984375</ele>
        <time>2012-12-30T09:02:53Z</time>
      </trkpt>
      <trkpt lat="43.2347" lon="6.36121">
        <ele>320.44921875</ele>
        <time>2012-12-30T09:02:57Z</time>
      </trkpt>
      <trkpt lat="43.23471" lon="6.36132">
        <ele>321.05859375</ele>
        <time>2012-12-30T09:03:01Z</time>
      </trkpt>
      <trkpt lat="43.23451" lon="6.36187">
        <ele>319.08984375</ele>
        <time>2012-12-30T09:03:17Z</time>
      </trkpt>
      <trkpt lat="43.23426" lon="6.36279">
        <ele>318.30859375</ele>
        <time>2012-12-30T09:03:36Z</time>
      </trkpt>
      <trkpt lat="43.23423" lon="6.36338">
        <ele>316.18359375</ele>
        <time>2012-12-30T09:03:48Z</time>
      </trkpt>
      <trkpt lat="43.23422" lon="6.36353">
        <ele>315.47265625</ele>
        <time>2012-12-30T09:03:53Z</time>
      </trkpt>
      <trkpt lat="43.2343" lon="6.36412">
        <ele>314.13671875</ele>
        <time>2012-12-30T09:04:08Z</time>
      </trkpt>
      <trkpt lat="43.23455" lon="6.3646">
        <ele>312.44140625</ele>
        <time>2012-12-30T09:04:21Z</time>
      </trkpt>
      <trkpt lat="43.23498" lon="6.36516">
        <ele>315.2109375</ele>
        <time>2012-12-30T09:04:38Z</time>
      </trkpt>
      <trkpt lat="43.23501" lon="6.36525">
        <ele>315.4921875</ele>
        <time>2012-12-30T09:04:40Z</time>
      </trkpt>
      <trkpt lat="43.23496" lon="6.36547">
        <ele>315.44921875</ele>
        <time>2012-12-30T09:04:44Z</time>
      </trkpt>
      <trkpt lat="43.23478" lon="6.36585">
        <ele>313.58984375</ele>
        <time>2012-12-30T09:04:52Z</time>
      </trkpt>
      <trkpt lat="43.23414" lon="6.36689">
        <ele>314.9296875</ele>
        <time>2012-12-30T09:05:13Z</time>
      </trkpt>
      <trkpt lat="43.23408" lon="6.36697">
        <ele>314.3359375</ele>
        <time>2012-12-30T09:05:15Z</time>
      </trkpt>
      <trkpt lat="43.23381" lon="6.36734">
        <ele>312.3984375</ele>
        <time>2012-12-30T09:05:24Z</time>
      </trkpt>
      <trkpt lat="43.23365" lon="6.36759">
        <ele>311.5390625</ele>
        <time>2012-12-30T09:05:30Z</time>
      </trkpt>
      <trkpt lat="43.23363" lon="6.36764">
        <ele>311.45703125</ele>
        <time>2012-12-30T09:05:31Z</time>
      </trkpt>
      <trkpt lat="43.23336" lon="6.3682">
        <ele>306.39453125</ele>
        <time>2012-12-30T09:05:44Z</time>
      </trkpt>
      <trkpt lat="43.23314" lon="6.36865">
        <ele>303.7109375</ele>
        <time>2012-12-30T09:05:59Z</time>
      </trkpt>
      <trkpt lat="43.23294" lon="6.36855">
        <ele>303.8515625</ele>
        <time>2012-12-30T09:06:05Z</time>
      </trkpt>
      <trkpt lat="43.23265" lon="6.36865">
        <ele>306.7578125</ele>
        <time>2012-12-30T09:06:12Z</time>
      </trkpt>
      <trkpt lat="43.23269" lon="6.36871">
        <ele>307.72265625</ele>
        <time>2012-12-30T09:06:14Z</time>
      </trkpt>
      <trkpt lat="43.233" lon="6.36891">
        <ele>308.2890625</ele>
        <time>2012-12-30T09:06:24Z</time>
      </trkpt>
      <trkpt lat="43.23312" lon="6.36903">
        <ele>309.07421875</ele>
        <time>2012-12-30T09:06:27Z</time>
      </trkpt>
      <trkpt lat="43.23342" lon="6.36947">
        <ele>313.03515625</ele>
        <time>2012-12-30T09:06:35Z</time>
      </trkpt>
      <trkpt lat="43.23381" lon="6.36971">
        <ele>315.7109375</ele>
        <time>2012-12-30T09:06:48Z</time>
      </trkpt>
      <trkpt lat="43.23403" lon="6.36974">
        <ele>313.75390625</ele>
        <time>2012-12-30T09:06:58Z</time>
      </trkpt>
      <trkpt lat="43.2344" lon="6.3698">
        <ele>308.734375</ele>
        <time>2012-12-30T09:07:15Z</time>
      </trkpt>
      <trkpt lat="43.23451" lon="6.36987">
        <ele>307.56640625</ele>
        <time>2012-12-30T09:07:20Z</time>
      </trkpt>
      <trkpt lat="43.23457" lon="6.36993">
        <ele>307.19140625</ele>
        <time>2012-12-30T09:07:23Z</time>
      </trkpt>
      <trkpt lat="43.23477" lon="6.37049">
        <ele>314.7109375</ele>
        <time>2012-12-30T09:07:44Z</time>
      </trkpt>
      <trkpt lat="43.23492" lon="6.37075">
        <ele>320.4140625</ele>
        <time>2012-12-30T09:07:55Z</time>
      </trkpt>
      <trkpt lat="43.23509" lon="6.37095">
        <ele>322.94921875</ele>
        <time>2012-12-30T09:08:06Z</time>
      </trkpt>
      <trkpt lat="43.23532" lon="6.37114">
        <ele>320.14453125</ele>
        <time>2012-12-30T09:08:21Z</time>
      </trkpt>
      <trkpt lat="43.23533" lon="6.37115">
        <ele>319.92578125</ele>
        <time>2012-12-30T09:08:22Z</time>
      </trkpt>
      <trkpt lat="43.2355" lon="6.37122">
        <ele>319.578125</ele>
        <time>2012-12-30T09:08:32Z</time>
      </trkpt>
      <trkpt lat="43.23552" lon="6.37122">
        <ele>319.4375</ele>
        <time>2012-12-30T09:08:33Z</time>
      </trkpt>
      <trkpt lat="43.23559" lon="6.37129">
        <ele>317.734375</ele>
        <time>2012-12-30T09:08:38Z</time>
      </trkpt>
      <trkpt lat="43.2356" lon="6.37134">
        <ele>316.57421875</ele>
        <time>2012-12-30T09:08:40Z</time>
      </trkpt>
      <trkpt lat="43.23558" lon="6.37141">
        <ele>314.7421875</ele>
        <time>2012-12-30T09:08:43Z</time>
      </trkpt>
      <trkpt lat="43.23539" lon="6.37173">
        <ele>310.15625</ele>
        <time>2012-12-30T09:09:00Z</time>
      </trkpt>
      <trkpt lat="43.2352" lon="6.37209">
        <ele>309.25</ele>
        <time>2012-12-30T09:09:22Z</time>
      </trkpt>
      <trkpt lat="43.23502" lon="6.37229">
        <ele>314.07421875</ele>
        <time>2012-12-30T09:09:36Z</time>
      </trkpt>
      <trkpt lat="43.23481" lon="6.37266">
        <ele>320.5390625</ele>
        <time>2012-12-30T09:09:57Z</time>
      </trkpt>
      <trkpt lat="43.2348" lon="6.37272">
        <ele>320.6640625</ele>
        <time>2012-12-30T09:10:00Z</time>
      </trkpt>
      <trkpt lat="43.23471" lon="6.37302">
        <ele>323.9140625</ele>
        <time>2012-12-30T09:10:15Z</time>
      </trkpt>
      <trkpt lat="43.23466" lon="6.37314">
        <ele>326.21875</ele>
        <time>2012-12-30T09:10:21Z</time>
      </trkpt>
      <trkpt lat="43.23463" lon="6.37369">
        <ele>327.19921875</ele>
        <time>2012-12-30T09:10:44Z</time>
      </trkpt>
      <trkpt lat="43.23459" lon="6.374">
        <ele>332.1171875</ele>
        <time>2012-12-30T09:10:58Z</time>
      </trkpt>
      <trkpt lat="43.23459" lon="6.37413">
        <ele>334.359375</ele>
        <time>2012-12-30T09:11:04Z</time>
      </trkpt>
      <trkpt lat="43.23455" lon="6.37442">
        <ele>342.2578125</ele>
        <time>2012-12-30T09:11:16Z</time>
      </trkpt>
      <trkpt lat="43.23471" lon="6.3747">
        <ele>337.87109375</ele>
        <time>2012-12-30T09:11:31Z</time>
      </trkpt>
      <trkpt lat="43.23475" lon="6.37512">
        <ele>341.9296875</ele>
        <time>2012-12-30T09:11:49Z</time>
      </trkpt>
      <trkpt lat="43.23472" lon="6.37543">
        <ele>350.125</ele>
        <time>2012-12-30T09:12:02Z</time>
      </trkpt>
      <trkpt lat="43.2347" lon="6.37564">
        <ele>356.2734375</ele>
        <time>2012-12-30T09:12:11Z</time>
      </trkpt>
      <trkpt lat="43.23494" lon="6.37596">
        <ele>354.23046875</ele>
        <time>2012-12-30T09:12:25Z</time>
      </trkpt>
      <trkpt lat="43.23522" lon="6.37638">
        <ele>351.8828125</ele>
        <time>2012-12-30T09:12:38Z</time>
      </trkpt>
      <trkpt lat="43.2352" lon="6.37663">
        <ele>357.078125</ele>
        <time>2012-12-30T09:12:44Z</time>
      </trkpt>
      <trkpt lat="43.23526" lon="6.37678">
        <ele>356.921875</ele>
        <time>2012-12-30T09:12:48Z</time>
      </trkpt>
      <trkpt lat="43.23544" lon="6.37698">
        <ele>349.71484375</ele>
        <time>2012-12-30T09:12:59Z</time>
      </trkpt>
      <trkpt lat="43.23545" lon="6.37704">
        <ele>349.19140625</ele>
        <time>2012-12-30T09:13:01Z</time>
      </trkpt>
      <trkpt lat="43.23546" lon="6.37711">
        <ele>348.36328125</ele>
        <time>2012-12-30T09:13:04Z</time>
      </trkpt>
      <trkpt lat="43.23538" lon="6.37759">
        <ele>353.265625</ele>
        <time>2012-12-30T09:13:22Z</time>
      </trkpt>
      <trkpt lat="43.2353" lon="6.37798">
        <ele>360.82421875</ele>
        <time>2012-12-30T09:13:37Z</time>
      </trkpt>
      <trkpt lat="43.23547" lon="6.37846">
        <ele>361.23046875</ele>
        <time>2012-12-30T09:13:52Z</time>
      </trkpt>
      <trkpt lat="43.23569" lon="6.37879">
        <ele>356.6953125</ele>
        <time>2012-12-30T09:14:03Z</time>
      </trkpt>
      <trkpt lat="43.23572" lon="6.37891">
        <ele>357.56640625</ele>
        <time>2012-12-30T09:14:06Z</time>
      </trkpt>
      <trkpt lat="43.23575" lon="6.37937">
        <ele>364.44140625</ele>
        <time>2012-12-30T09:14:18Z</time>
      </trkpt>
      <trkpt lat="43.2358" lon="6.3797">
        <ele>367.17578125</ele>
        <time>2012-12-30T09:14:28Z</time>
      </trkpt>
      <trkpt lat="43.23594" lon="6.38002">
        <ele>366.52734375</ele>
        <time>2012-12-30T09:14:40Z</time>
      </trkpt>
      <trkpt lat="43.23601" lon="6.38021">
        <ele>365.75</ele>
        <time>2012-12-30T09:14:46Z</time>
      </trkpt>
      <trkpt lat="43.23599" lon="6.38084">
        <ele>374.75</ele>
        <time>2012-12-30T09:15:06Z</time>
      </trkpt>
      <trkpt lat="43.236" lon="6.38091">
        <ele>375.08984375</ele>
        <time>2012-12-30T09:15:08Z</time>
      </trkpt>
      <trkpt lat="43.23611" lon="6.3813">
        <ele>374.30859375</ele>
        <time>2012-12-30T09:15:20Z</time>
      </trkpt>
      <trkpt lat="43.23612" lon="6.38132">
        <ele>374.3203125</ele>
        <time>2012-12-30T09:15:21Z</time>
      </trkpt>
      <trkpt lat="43.23613" lon="6.38173">
        <ele>377.8828125</ele>
        <time>2012-12-30T09:15:32Z</time>
      </trkpt>
      <trkpt lat="43.23617" lon="6.38209">
        <ele>377.5703125</ele>
        <time>2012-12-30T09:15:44Z</time>
      </trkpt>
      <trkpt lat="43.23606" lon="6.38247">
        <ele>377.63671875</ele>
        <time>2012-12-30T09:15:59Z</time>
      </trkpt>
      <trkpt lat="43.23572" lon="6.3825">
        <ele>382.07421875</ele>
        <time>2012-12-30T09:16:15Z</time>
      </trkpt>
      <trkpt lat="43.23552" lon="6.38253">
        <ele>382.51171875</ele>
        <time>2012-12-30T09:16:28Z</time>
      </trkpt>
      <trkpt lat="43.23522" lon="6.38259">
        <ele>384.08203125</ele>
        <time>2012-12-30T09:16:46Z</time>
      </trkpt>
      <trkpt lat="43.23496" lon="6.38281">
        <ele>383.60546875</ele>
        <time>2012-12-30T09:17:01Z</time>
      </trkpt>
      <trkpt lat="43.23466" lon="6.38316">
        <ele>382.3515625</ele>
        <time>2012-12-30T09:17:18Z</time>
      </trkpt>
      <trkpt lat="43.23431" lon="6.38345">
        <ele>384.82421875</ele>
        <time>2012-12-30T09:17:32Z</time>
      </trkpt>
      <trkpt lat="43.23393" lon="6.38373">
        <ele>390.3984375</ele>
        <time>2012-12-30T09:17:48Z</time>
      </trkpt>
      <trkpt lat="43.23377" lon="6.38381">
        <ele>393.2109375</ele>
        <time>2012-12-30T09:17:55Z</time>
      </trkpt>
      <trkpt lat="43.23373" lon="6.38393">
        <ele>393.38671875</ele>
        <time>2012-12-30T09:17:59Z</time>
      </trkpt>
      <trkpt lat="43.23372" lon="6.38406">
        <ele>393.9609375</ele>
        <time>2012-12-30T09:18:04Z</time>
      </trkpt>
      <trkpt lat="43.23374" lon="6.38462">
        <ele>400.36328125</ele>
        <time>2012-12-30T09:18:21Z</time>
      </trkpt>
      <trkpt lat="43.23373" lon="6.38465">
        <ele>400.92578125</ele>
        <time>2012-12-30T09:18:22Z</time>
      </trkpt>
      <trkpt lat="43.23373" lon="6.38493">
        <ele>407.94921875</ele>
        <time>2012-12-30T09:18:32Z</time>
      </trkpt>
      <trkpt lat="43.23393" lon="6.38504">
        <ele>408.1015625</ele>
        <time>2012-12-30T09:18:46Z</time>
      </trkpt>
      <trkpt lat="43.23403" lon="6.38522">
        <ele>411.47265625</ele>
        <time>2012-12-30T09:18:56Z</time>
      </trkpt>
      <trkpt lat="43.23413" lon="6.3854">
        <ele>415.38671875</ele>
        <time>2012-12-30T09:19:11Z</time>
      </trkpt>
      <trkpt lat="43.23414" lon="6.38539">
        <ele>415.015625</ele>
        <time>2012-12-30T09:19:35Z</time>
      </trkpt>
      <trkpt lat="43.23411" lon="6.38533">
        <ele>413.63671875</ele>
        <time>2012-12-30T09:19:38Z</time>
      </trkpt>
      <trkpt lat="43.23405" lon="6.38521">
        <ele>410.9921875</ele>
        <time>2012-12-30T09:19:41Z</time>
      </trkpt>
      <trkpt lat="43.23402" lon="6.38516">
        <ele>410.0859375</ele>
        <time>2012-12-30T09:19:43Z</time>
      </trkpt>
      <trkpt lat="43.23408" lon="6.3851">
        <ele>407.9609375</ele>
        <time>2012-12-30T09:19:49Z</time>
      </trkpt>
      <trkpt lat="43.23418" lon="6.38523">
        <ele>410.05078125</ele>
        <time>2012-12-30T09:19:55Z</time>
      </trkpt>
      <trkpt lat="43.2344" lon="6.38527">
        <ele>408.14453125</ele>
        <time>2012-12-30T09:20:02Z</time>
      </trkpt>
      <trkpt lat="43.23466" lon="6.38536">
        <ele>404.8515625</ele>
        <time>2012-12-30T09:20:11Z</time>
      </trkpt>
      <trkpt lat="43.23485" lon="6.38554">
        <ele>403.1171875</ele>
        <time>2012-12-30T09:20:21Z</time>
      </trkpt>
      <trkpt lat="43.23492" lon="6.38576">
        <ele>403.2578125</ele>
        <time>2012-12-30T09:20:30Z</time>
      </trkpt>
      <trkpt lat="43.23495" lon="6.38589">
        <ele>403.87890625</ele>
        <time>2012-12-30T09:20:34Z</time>
      </trkpt>
      <trkpt lat="43.23505" lon="6.38623">
        <ele>400.8125</ele>
        <time>2012-12-30T09:20:43Z</time>
      </trkpt>
      <trkpt lat="43.23518" lon="6.38635">
        <ele>394.57421875</ele>
        <time>2012-12-30T09:20:49Z</time>
      </trkpt>
      <trkpt lat="43.23523" lon="6.38644">
        <ele>391.83203125</ele>
        <time>2012-12-30T09:20:53Z</time>
      </trkpt>
      <trkpt lat="43.23527" lon="6.38656">
        <ele>389.1953125</ele>
        <time>2012-12-30T09:21:02Z</time>
      </trkpt>
      <trkpt lat="43.23525" lon="6.38692">
        <ele>393.18359375</ele>
        <time>2012-12-30T09:21:14Z</time>
      </trkpt>
      <trkpt lat="43.23523" lon="6.38704">
        <ele>396.31640625</ele>
        <time>2012-12-30T09:21:19Z</time>
      </trkpt>
      <trkpt lat="43.23523" lon="6.38711">
        <ele>397.57421875</ele>
        <time>2012-12-30T09:21:23Z</time>
      </trkpt>
      <trkpt lat="43.23542" lon="6.38729">
        <ele>392.3828125</ele>
        <time>2012-12-30T09:21:34Z</time>
      </trkpt>
      <trkpt lat="43.23561" lon="6.38758">
        <ele>388.32421875</ele>
        <time>2012-12-30T09:21:48Z</time>
      </trkpt>
      <trkpt lat="43.23565" lon="6.38772">
        <ele>386.921875</ele>
        <time>2012-12-30T09:21:55Z</time>
      </trkpt>
      <trkpt lat="43.23567" lon="6.3879">
        <ele>386.98828125</ele>
        <time>2012-12-30T09:22:01Z</time>
      </trkpt>
      <trkpt lat="43.23568" lon="6.38795">
        <ele>386.859375</ele>
        <time>2012-12-30T09:22:03Z</time>
      </trkpt>
      <trkpt lat="43.23567" lon="6.38803">
        <ele>387.625</ele>
        <time>2012-12-30T09:22:07Z</time>
      </trkpt>
      <trkpt lat="43.23567" lon="6.38819">
        <ele>389.34765625</ele>
        <time>2012-12-30T09:22:13Z</time>
      </trkpt>
      <trkpt lat="43.23577" lon="6.38853">
        <ele>390.13671875</ele>
        <time>2012-12-30T09:22:31Z</time>
      </trkpt>
      <trkpt lat="43.23578" lon="6.38854">
        <ele>390.09375</ele>
        <time>2012-12-30T09:22:32Z</time>
      </trkpt>
      <trkpt lat="43.23585" lon="6.38872">
        <ele>390.76953125</ele>
        <time>2012-12-30T09:22:43Z</time>
      </trkpt>
      <trkpt lat="43.23586" lon="6.38877">
        <ele>391.2890625</ele>
        <time>2012-12-30T09:22:46Z</time>
      </trkpt>
      <trkpt lat="43.23587" lon="6.38884">
        <ele>392.33203125</ele>
        <time>2012-12-30T09:22:49Z</time>
      </trkpt>
      <trkpt lat="43.23585" lon="6.38888">
        <ele>394.01171875</ele>
        <time>2012-12-30T09:23:04Z</time>
      </trkpt>
      <trkpt lat="43.23585" lon="6.38889">
        <ele>394.375</ele>
        <time>2012-12-30T09:23:05Z</time>
      </trkpt>
      <trkpt lat="43.23585" lon="6.38897">
        <ele>396.64453125</ele>
        <time>2012-12-30T09:23:17Z</time>
      </trkpt>
      <trkpt lat="43.23584" lon="6.38899">
        <ele>397.33203125</ele>
        <time>2012-12-30T09:23:25Z</time>
      </trkpt>
      <trkpt lat="43.23581" lon="6.38904">
        <ele>399.9296875</ele>
        <time>2012-12-30T09:23:29Z</time>
      </trkpt>
      <trkpt lat="43.2358" lon="6.3891">
        <ele>401.61328125</ele>
        <time>2012-12-30T09:23:32Z</time>
      </trkpt>
      <trkpt lat="43.23577" lon="6.38917">
        <ele>404.48046875</ele>
        <time>2012-12-30T09:23:44Z</time>
      </trkpt>
      <trkpt lat="43.23572" lon="6.38931">
        <ele>409.328125</ele>
        <time>2012-12-30T09:24:01Z</time>
      </trkpt>
      <trkpt lat="43.23574" lon="6.38936">
        <ele>410.31640625</ele>
        <time>2012-12-30T09:24:10Z</time>
      </trkpt>
      <trkpt lat="43.23581" lon="6.38945">
        <ele>410.41796875</ele>
        <time>2012-12-30T09:24:22Z</time>
      </trkpt>
      <trkpt lat="43.23587" lon="6.38956">
        <ele>411.5859375</ele>
        <time>2012-12-30T09:24:37Z</time>
      </trkpt>
      <trkpt lat="43.23591" lon="6.38958">
        <ele>411.62890625</ele>
        <time>2012-12-30T09:24:44Z</time>
      </trkpt>
      <trkpt lat="43.23596" lon="6.38963">
        <ele>411.90234375</ele>
        <time>2012-12-30T09:25:01Z</time>
      </trkpt>
      <trkpt lat="43.23605" lon="6.38974">
        <ele>412.97265625</ele>
        <time>2012-12-30T09:25:13Z</time>
      </trkpt>
      <trkpt lat="43.23612" lon="6.38987">
        <ele>415.03515625</ele>
        <time>2012-12-30T09:25:26Z</time>
      </trkpt>
      <trkpt lat="43.23614" lon="6.3899">
        <ele>415.48046875</ele>
        <time>2012-12-30T09:25:28Z</time>
      </trkpt>
      <trkpt lat="43.23626" lon="6.39013">
        <ele>420.3046875</ele>
        <time>2012-12-30T09:25:45Z</time>
      </trkpt>
      <trkpt lat="43.2363" lon="6.39021">
        <ele>422.1640625</ele>
        <time>2012-12-30T09:25:51Z</time>
      </trkpt>
      <trkpt lat="43.23647" lon="6.39032">
        <ele>422.71484375</ele>
        <time>2012-12-30T09:26:06Z</time>
      </trkpt>
      <trkpt lat="43.23659" lon="6.39035">
        <ele>421.69140625</ele>
        <time>2012-12-30T09:26:17Z</time>
      </trkpt>
      <trkpt lat="43.23663" lon="6.39036">
        <ele>421.20703125</ele>
        <time>2012-12-30T09:26:21Z</time>
      </trkpt>
      <trkpt lat="43.23676" lon="6.39045">
        <ele>420.3125</ele>
        <time>2012-12-30T09:26:30Z</time>
      </trkpt>
      <trkpt lat="43.23687" lon="6.39057">
        <ele>418.8828125</ele>
        <time>2012-12-30T09:26:50Z</time>
      </trkpt>
      <trkpt lat="43.23699" lon="6.3907">
        <ele>416.08984375</ele>
        <time>2012-12-30T09:27:09Z</time>
      </trkpt>
      <trkpt lat="43.23697" lon="6.39077">
        <ele>417.265625</ele>
        <time>2012-12-30T09:27:26Z</time>
      </trkpt>
      <trkpt lat="43.23705" lon="6.39099">
        <ele>414.5078125</ele>
        <time>2012-12-30T09:27:41Z</time>
      </trkpt>
      <trkpt lat="43.23711" lon="6.3914">
        <ele>410.95703125</ele>
        <time>2012-12-30T09:27:53Z</time>
      </trkpt>
      <trkpt lat="43.23699" lon="6.39191">
        <ele>416.76171875</ele>
        <time>2012-12-30T09:28:05Z</time>
      </trkpt>
      <trkpt lat="43.23709" lon="6.39224">
        <ele>419.03125</ele>
        <time>2012-12-30T09:28:12Z</time>
      </trkpt>
      <trkpt lat="43.23732" lon="6.39268">
        <ele>413.9296875</ele>
        <time>2012-12-30T09:28:26Z</time>
      </trkpt>
      <trkpt lat="43.23739" lon="6.39302">
        <ele>410.28125</ele>
        <time>2012-12-30T09:28:36Z</time>
      </trkpt>
      <trkpt lat="43.23732" lon="6.39314">
        <ele>411.9609375</ele>
        <time>2012-12-30T09:28:41Z</time>
      </trkpt>
      <trkpt lat="43.2371" lon="6.39328">
        <ele>417.8203125</ele>
        <time>2012-12-30T09:28:51Z</time>
      </trkpt>
      <trkpt lat="43.23698" lon="6.3938">
        <ele>419.48828125</ele>
        <time>2012-12-30T09:29:06Z</time>
      </trkpt>
      <trkpt lat="43.23714" lon="6.39429">
        <ele>423.75390625</ele>
        <time>2012-12-30T09:29:18Z</time>
      </trkpt>
      <trkpt lat="43.23723" lon="6.39448">
        <ele>424.9296875</ele>
        <time>2012-12-30T09:29:22Z</time>
      </trkpt>
      <trkpt lat="43.23742" lon="6.39465">
        <ele>422.7421875</ele>
        <time>2012-12-30T09:29:28Z</time>
      </trkpt>
      <trkpt lat="43.23755" lon="6.39481">
        <ele>421.15234375</ele>
        <time>2012-12-30T09:29:32Z</time>
      </trkpt>
      <trkpt lat="43.23758" lon="6.39484">
        <ele>420.70703125</ele>
        <time>2012-12-30T09:29:33Z</time>
      </trkpt>
      <trkpt lat="43.23782" lon="6.39547">
        <ele>415.48828125</ele>
        <time>2012-12-30T09:29:45Z</time>
      </trkpt>
      <trkpt lat="43.23784" lon="6.39559">
        <ele>414.24609375</ele>
        <time>2012-12-30T09:29:47Z</time>
      </trkpt>
      <trkpt lat="43.23782" lon="6.39608">
        <ele>414.07421875</ele>
        <time>2012-12-30T09:29:54Z</time>
      </trkpt>
      <trkpt lat="43.23768" lon="6.39679">
        <ele>412.4609375</ele>
        <time>2012-12-30T09:30:06Z</time>
      </trkpt>
      <trkpt lat="43.23754" lon="6.39696">
        <ele>412.234375</ele>
        <time>2012-12-30T09:30:11Z</time>
      </trkpt>
      <trkpt lat="43.23738" lon="6.39708">
        <ele>411.85546875</ele>
        <time>2012-12-30T09:30:15Z</time>
      </trkpt>
      <trkpt lat="43.23723" lon="6.39724">
        <ele>409.88671875</ele>
        <time>2012-12-30T09:30:19Z</time>
      </trkpt>
      <trkpt lat="43.23705" lon="6.39752">
        <ele>404.6953125</ele>
        <time>2012-12-30T09:30:25Z</time>
      </trkpt>
      <trkpt lat="43.23693" lon="6.39766">
        <ele>401.4921875</ele>
        <time>2012-12-30T09:30:28Z</time>
      </trkpt>
      <trkpt lat="43.23668" lon="6.39789">
        <ele>398.01171875</ele>
        <time>2012-12-30T09:30:35Z</time>
      </trkpt>
      <trkpt lat="43.2364" lon="6.39812">
        <ele>399.640625</ele>
        <time>2012-12-30T09:30:43Z</time>
      </trkpt>
      <trkpt lat="43.23625" lon="6.39832">
        <ele>398.5625</ele>
        <time>2012-12-30T09:30:47Z</time>
      </trkpt>
      <trkpt lat="43.23618" lon="6.39843">
        <ele>397.6953125</ele>
        <time>2012-12-30T09:30:49Z</time>
      </trkpt>
      <trkpt lat="43.23604" lon="6.39864">
        <ele>394.9609375</ele>
        <time>2012-12-30T09:30:53Z</time>
      </trkpt>
      <trkpt lat="43.23581" lon="6.39863">
        <ele>400.74609375</ele>
        <time>2012-12-30T09:30:58Z</time>
      </trkpt>
      <trkpt lat="43.23561" lon="6.39845">
        <ele>407.328125</ele>
        <time>2012-12-30T09:31:02Z</time>
      </trkpt>
      <trkpt lat="43.23553" lon="6.39837">
        <ele>409.59375</ele>
        <time>2012-12-30T09:31:04Z</time>
      </trkpt>
      <trkpt lat="43.23525" lon="6.39818">
        <ele>413.078125</ele>
        <time>2012-12-30T09:31:09Z</time>
      </trkpt>
      <trkpt lat="43.23508" lon="6.39805">
        <ele>413.0234375</ele>
        <time>2012-12-30T09:31:13Z</time>
      </trkpt>
      <trkpt lat="43.23501" lon="6.39791">
        <ele>416.078125</ele>
        <time>2012-12-30T09:31:16Z</time>
      </trkpt>
      <trkpt lat="43.23483" lon="6.39789">
        <ele>413.69921875</ele>
        <time>2012-12-30T09:31:23Z</time>
      </trkpt>
      <trkpt lat="43.23479" lon="6.39814">
        <ele>406.13671875</ele>
        <time>2012-12-30T09:31:32Z</time>
      </trkpt>
      <trkpt lat="43.23482" lon="6.39826">
        <ele>403.6484375</ele>
        <time>2012-12-30T09:31:36Z</time>
      </trkpt>
      <trkpt lat="43.23482" lon="6.3984">
        <ele>400.359375</ele>
        <time>2012-12-30T09:31:41Z</time>
      </trkpt>
      <trkpt lat="43.23481" lon="6.39864">
        <ele>395.0703125</ele>
        <time>2012-12-30T09:31:48Z</time>
      </trkpt>
      <trkpt lat="43.23477" lon="6.39874">
        <ele>393.3671875</ele>
        <time>2012-12-30T09:31:52Z</time>
      </trkpt>
      <trkpt lat="43.23451" lon="6.39911">
        <ele>404.27734375</ele>
        <time>2012-12-30T09:32:10Z</time>
      </trkpt>
      <trkpt lat="43.23443" lon="6.3992">
        <ele>408.76953125</ele>
        <time>2012-12-30T09:32:15Z</time>
      </trkpt>
      <trkpt lat="43.23441" lon="6.39933">
        <ele>410.55859375</ele>
        <time>2012-12-30T09:32:20Z</time>
      </trkpt>
      <trkpt lat="43.23442" lon="6.39938">
        <ele>410.4609375</ele>
        <time>2012-12-30T09:32:22Z</time>
      </trkpt>
      <trkpt lat="43.23461" lon="6.39964">
        <ele>406.81640625</ele>
        <time>2012-12-30T09:32:37Z</time>
      </trkpt>
      <trkpt lat="43.2347" lon="6.39994">
        <ele>411.34375</ele>
        <time>2012-12-30T09:32:52Z</time>
      </trkpt>
      <trkpt lat="43.23488" lon="6.40041">
        <ele>418.80859375</ele>
        <time>2012-12-30T09:33:11Z</time>
      </trkpt>
      <trkpt lat="43.23508" lon="6.40093">
        <ele>415.48046875</ele>
        <time>2012-12-30T09:33:30Z</time>
      </trkpt>
      <trkpt lat="43.23503" lon="6.40145">
        <ele>404</ele>
        <time>2012-12-30T09:33:46Z</time>
      </trkpt>
      <trkpt lat="43.23489" lon="6.40153">
        <ele>403.81640625</ele>
        <time>2012-12-30T09:33:59Z</time>
      </trkpt>
      <trkpt lat="43.23487" lon="6.40153">
        <ele>404.0078125</ele>
        <time>2012-12-30T09:34:12Z</time>
      </trkpt>
      <trkpt lat="43.23489" lon="6.40152">
        <ele>404.046875</ele>
        <time>2012-12-30T09:34:30Z</time>
      </trkpt>
      <trkpt lat="43.2349" lon="6.40149">
        <ele>404.84375</ele>
        <time>2012-12-30T09:34:44Z</time>
      </trkpt>
      <trkpt lat="43.2349" lon="6.40148">
        <ele>405.24609375</ele>
        <time>2012-12-30T09:35:14Z</time>
      </trkpt>
      <trkpt lat="43.2349" lon="6.40148">
        <ele>405.17578125</ele>
        <time>2012-12-30T09:36:47Z</time>
      </trkpt>
      <trkpt lat="43.2349" lon="6.40148">
        <ele>405.171875</ele>
        <time>2012-12-30T09:36:48Z</time>
      </trkpt>
      <trkpt lat="43.2349" lon="6.40147">
        <ele>405.5859375</ele>
        <time>2012-12-30T09:36:59Z</time>
      </trkpt>
      <trkpt lat="43.23494" lon="6.40139">
        <ele>407.3515625</ele>
        <time>2012-12-30T09:38:37Z</time>
      </trkpt>
      <trkpt lat="43.23491" lon="6.40141">
        <ele>407.5</ele>
        <time>2012-12-30T09:38:52Z</time>
      </trkpt>
      <trkpt lat="43.2349" lon="6.40139">
        <ele>408.39453125</ele>
        <time>2012-12-30T09:38:54Z</time>
      </trkpt>
      <trkpt lat="43.23491" lon="6.40137">
        <ele>408.69921875</ele>
        <time>2012-12-30T09:39:10Z</time>
      </trkpt>
      <trkpt lat="43.23488" lon="6.40138">
        <ele>408.77734375</ele>
        <time>2012-12-30T09:39:24Z</time>
      </trkpt>
      <trkpt lat="43.23489" lon="6.40129">
        <ele>411.12109375</ele>
        <time>2012-12-30T09:39:33Z</time>
      </trkpt>
      <trkpt lat="43.23487" lon="6.40141">
        <ele>408.08203125</ele>
        <time>2012-12-30T09:39:52Z</time>
      </trkpt>
      <trkpt lat="43.23487" lon="6.40141">
        <ele>408.0546875</ele>
        <time>2012-12-30T09:45:45Z</time>
      </trkpt>
      <trkpt lat="43.23488" lon="6.4015">
        <ele>405.11328125</ele>
        <time>2012-12-30T09:48:23Z</time>
      </trkpt>
      <trkpt lat="43.23489" lon="6.40152">
        <ele>404.30859375</ele>
        <time>2012-12-30T09:49:08Z</time>
      </trkpt>
      <trkpt lat="43.23486" lon="6.40153">
        <ele>404.3046875</ele>
        <time>2012-12-30T09:49:44Z</time>
      </trkpt>
      <trkpt lat="43.2349" lon="6.40151">
        <ele>404.37890625</ele>
        <time>2012-12-30T09:49:53Z</time>
      </trkpt>
      <trkpt lat="43.23495" lon="6.40148">
        <ele>404.24609375</ele>
        <time>2012-12-30T09:49:57Z</time>
      </trkpt>
      <trkpt lat="43.23506" lon="6.40106">
        <ele>413.50390625</ele>
        <time>2012-12-30T09:50:16Z</time>
      </trkpt>
      <trkpt lat="43.23493" lon="6.40057">
        <ele>418.9609375</ele>
        <time>2012-12-30T09:50:35Z</time>
      </trkpt>
      <trkpt lat="43.23487" lon="6.40045">
        <ele>419.3359375</ele>
        <time>2012-12-30T09:50:40Z</time>
      </trkpt>
      <trkpt lat="43.2347" lon="6.40002">
        <ele>413.44921875</ele>
        <time>2012-12-30T09:50:56Z</time>
      </trkpt>
      <trkpt lat="43.23457" lon="6.3998">
        <ele>413.12109375</ele>
        <time>2012-12-30T09:51:10Z</time>
      </trkpt>
      <trkpt lat="43.23443" lon="6.3996">
        <ele>414.1796875</ele>
        <time>2012-12-30T09:51:23Z</time>
      </trkpt>
      <trkpt lat="43.23435" lon="6.39955">
        <ele>417.203125</ele>
        <time>2012-12-30T09:51:33Z</time>
      </trkpt>
      <trkpt lat="43.23429" lon="6.39952">
        <ele>419.6640625</ele>
        <time>2012-12-30T09:51:52Z</time>
      </trkpt>
      <trkpt lat="43.2342" lon="6.39946">
        <ele>423.25</ele>
        <time>2012-12-30T09:51:58Z</time>
      </trkpt>
      <trkpt lat="43.23418" lon="6.3994">
        <ele>423.80078125</ele>
        <time>2012-12-30T09:52:01Z</time>
      </trkpt>
      <trkpt lat="43.23422" lon="6.39927">
        <ele>420.640625</ele>
        <time>2012-12-30T09:52:05Z</time>
      </trkpt>
      <trkpt lat="43.23427" lon="6.39916">
        <ele>416.90625</ele>
        <time>2012-12-30T09:52:10Z</time>
      </trkpt>
      <trkpt lat="43.23432" lon="6.39898">
        <ele>414.671875</ele>
        <time>2012-12-30T09:52:20Z</time>
      </trkpt>
      <trkpt lat="43.23434" lon="6.39897">
        <ele>413.56640625</ele>
        <time>2012-12-30T09:52:25Z</time>
      </trkpt>
      <trkpt lat="43.23439" lon="6.39892">
        <ele>410.9140625</ele>
        <time>2012-12-30T09:52:28Z</time>
      </trkpt>
      <trkpt lat="43.23446" lon="6.39872">
        <ele>408.97265625</ele>
        <time>2012-12-30T09:52:35Z</time>
      </trkpt>
      <trkpt lat="43.23445" lon="6.39837">
        <ele>414.26953125</ele>
        <time>2012-12-30T09:52:47Z</time>
      </trkpt>
      <trkpt lat="43.23443" lon="6.3982">
        <ele>417.09765625</ele>
        <time>2012-12-30T09:52:54Z</time>
      </trkpt>
      <trkpt lat="43.23441" lon="6.39818">
        <ele>418.01953125</ele>
        <time>2012-12-30T09:52:56Z</time>
      </trkpt>
      <trkpt lat="43.23438" lon="6.398">
        <ele>420.3984375</ele>
        <time>2012-12-30T09:53:11Z</time>
      </trkpt>
      <trkpt lat="43.23439" lon="6.39774">
        <ele>420.515625</ele>
        <time>2012-12-30T09:53:22Z</time>
      </trkpt>
      <trkpt lat="43.23432" lon="6.39756">
        <ele>422.41015625</ele>
        <time>2012-12-30T09:53:29Z</time>
      </trkpt>
      <trkpt lat="43.23412" lon="6.39738">
        <ele>429.16796875</ele>
        <time>2012-12-30T09:53:45Z</time>
      </trkpt>
      <trkpt lat="43.23408" lon="6.39734">
        <ele>430.5234375</ele>
        <time>2012-12-30T09:53:50Z</time>
      </trkpt>
      <trkpt lat="43.23399" lon="6.3973">
        <ele>433.671875</ele>
        <time>2012-12-30T09:54:05Z</time>
      </trkpt>
      <trkpt lat="43.23391" lon="6.39728">
        <ele>436.296875</ele>
        <time>2012-12-30T09:54:22Z</time>
      </trkpt>
      <trkpt lat="43.23388" lon="6.39722">
        <ele>436.9140625</ele>
        <time>2012-12-30T09:54:32Z</time>
      </trkpt>
      <trkpt lat="43.23391" lon="6.39703">
        <ele>432.44921875</ele>
        <time>2012-12-30T09:54:44Z</time>
      </trkpt>
      <trkpt lat="43.2339" lon="6.39694">
        <ele>431.84375</ele>
        <time>2012-12-30T09:54:50Z</time>
      </trkpt>
      <trkpt lat="43.23386" lon="6.3968">
        <ele>433.91796875</ele>
        <time>2012-12-30T09:55:02Z</time>
      </trkpt>
      <trkpt lat="43.23383" lon="6.39676">
        <ele>435.23046875</ele>
        <time>2012-12-30T09:55:05Z</time>
      </trkpt>
      <trkpt lat="43.23378" lon="6.39663">
        <ele>437.984375</ele>
        <time>2012-12-30T09:55:13Z</time>
      </trkpt>
      <trkpt lat="43.23377" lon="6.39659">
        <ele>438.8046875</ele>
        <time>2012-12-30T09:55:15Z</time>
      </trkpt>
      <trkpt lat="43.23375" lon="6.3965">
        <ele>440.9375</ele>
        <time>2012-12-30T09:55:20Z</time>
      </trkpt>
      <trkpt lat="43.23374" lon="6.39644">
        <ele>441.71875</ele>
        <time>2012-12-30T09:55:23Z</time>
      </trkpt>
      <trkpt lat="43.23371" lon="6.39635">
        <ele>444.203125</ele>
        <time>2012-12-30T09:55:28Z</time>
      </trkpt>
      <trkpt lat="43.23363" lon="6.39606">
        <ele>450.68359375</ele>
        <time>2012-12-30T09:55:45Z</time>
      </trkpt>
      <trkpt lat="43.23362" lon="6.39602">
        <ele>451.37109375</ele>
        <time>2012-12-30T09:55:53Z</time>
      </trkpt>
      <trkpt lat="43.23362" lon="6.39593">
        <ele>452.171875</ele>
        <time>2012-12-30T09:55:59Z</time>
      </trkpt>
      <trkpt lat="43.23359" lon="6.39588">
        <ele>453.48828125</ele>
        <time>2012-12-30T09:56:03Z</time>
      </trkpt>
      <trkpt lat="43.23353" lon="6.3957">
        <ele>456.171875</ele>
        <time>2012-12-30T09:56:16Z</time>
      </trkpt>
      <trkpt lat="43.23353" lon="6.39569">
        <ele>456.3125</ele>
        <time>2012-12-30T09:56:17Z</time>
      </trkpt>
      <trkpt lat="43.23346" lon="6.39556">
        <ele>457.89453125</ele>
        <time>2012-12-30T09:56:26Z</time>
      </trkpt>
      <trkpt lat="43.23344" lon="6.39549">
        <ele>458.0546875</ele>
        <time>2012-12-30T09:56:30Z</time>
      </trkpt>
      <trkpt lat="43.23338" lon="6.39541">
        <ele>458.47265625</ele>
        <time>2012-12-30T09:56:41Z</time>
      </trkpt>
      <trkpt lat="43.23336" lon="6.39541">
        <ele>459.4609375</ele>
        <time>2012-12-30T09:56:42Z</time>
      </trkpt>
      <trkpt lat="43.23335" lon="6.39535">
        <ele>459.65234375</ele>
        <time>2012-12-30T09:56:46Z</time>
      </trkpt>
      <trkpt lat="43.23328" lon="6.39528">
        <ele>462.0390625</ele>
        <time>2012-12-30T09:56:58Z</time>
      </trkpt>
      <trkpt lat="43.23322" lon="6.39522">
        <ele>464.1328125</ele>
        <time>2012-12-30T09:57:22Z</time>
      </trkpt>
      <trkpt lat="43.23307" lon="6.39507">
        <ele>467.72265625</ele>
        <time>2012-12-30T09:57:35Z</time>
      </trkpt>
      <trkpt lat="43.23306" lon="6.39506">
        <ele>467.98828125</ele>
        <time>2012-12-30T09:57:37Z</time>
      </trkpt>
      <trkpt lat="43.23294" lon="6.39494">
        <ele>469.37109375</ele>
        <time>2012-12-30T09:57:50Z</time>
      </trkpt>
      <trkpt lat="43.2329" lon="6.3949">
        <ele>469.8046875</ele>
        <time>2012-12-30T09:57:54Z</time>
      </trkpt>
      <trkpt lat="43.23286" lon="6.39484">
        <ele>470.1328125</ele>
        <time>2012-12-30T09:58:00Z</time>
      </trkpt>
      <trkpt lat="43.23281" lon="6.3948">
        <ele>470.515625</ele>
        <time>2012-12-30T09:58:04Z</time>
      </trkpt>
      <trkpt lat="43.23275" lon="6.39467">
        <ele>470.69140625</ele>
        <time>2012-12-30T09:58:15Z</time>
      </trkpt>
      <trkpt lat="43.23267" lon="6.39457">
        <ele>472.57421875</ele>
        <time>2012-12-30T09:58:25Z</time>
      </trkpt>
      <trkpt lat="43.23263" lon="6.39453">
        <ele>473.39453125</ele>
        <time>2012-12-30T09:58:39Z</time>
      </trkpt>
      <trkpt lat="43.23263" lon="6.39454">
        <ele>473.48046875</ele>
        <time>2012-12-30T09:59:08Z</time>
      </trkpt>
      <trkpt lat="43.23263" lon="6.39454">
        <ele>473.4765625</ele>
        <time>2012-12-30T09:59:10Z</time>
      </trkpt>
      <trkpt lat="43.23262" lon="6.39454">
        <ele>473.64453125</ele>
        <time>2012-12-30T10:00:24Z</time>
      </trkpt>
      <trkpt lat="43.23239" lon="6.39446">
        <ele>477.38671875</ele>
        <time>2012-12-30T10:00:38Z</time>
      </trkpt>
      <trkpt lat="43.23231" lon="6.39447">
        <ele>478.56640625</ele>
        <time>2012-12-30T10:00:44Z</time>
      </trkpt>
      <trkpt lat="43.23223" lon="6.39447">
        <ele>479.8671875</ele>
        <time>2012-12-30T10:00:49Z</time>
      </trkpt>
      <trkpt lat="43.23225" lon="6.39437">
        <ele>479.0078125</ele>
        <time>2012-12-30T10:00:57Z</time>
      </trkpt>
      <trkpt lat="43.23226" lon="6.39433">
        <ele>478.8046875</ele>
        <time>2012-12-30T10:00:59Z</time>
      </trkpt>
      <trkpt lat="43.23224" lon="6.39411">
        <ele>478.58984375</ele>
        <time>2012-12-30T10:01:13Z</time>
      </trkpt>
      <trkpt lat="43.23224" lon="6.3941">
        <ele>478.6171875</ele>
        <time>2012-12-30T10:01:14Z</time>
      </trkpt>
      <trkpt lat="43.23222" lon="6.39408">
        <ele>478.9609375</ele>
        <time>2012-12-30T10:01:16Z</time>
      </trkpt>
      <trkpt lat="43.23214" lon="6.39398">
        <ele>479.94921875</ele>
        <time>2012-12-30T10:01:27Z</time>
      </trkpt>
      <trkpt lat="43.23211" lon="6.39396">
        <ele>480.20703125</ele>
        <time>2012-12-30T10:01:30Z</time>
      </trkpt>
      <trkpt lat="43.23193" lon="6.39384">
        <ele>482.41796875</ele>
        <time>2012-12-30T10:01:43Z</time>
      </trkpt>
      <trkpt lat="43.23188" lon="6.3938">
        <ele>483.609375</ele>
        <time>2012-12-30T10:01:49Z</time>
      </trkpt>
      <trkpt lat="43.23185" lon="6.39379">
        <ele>484.2265625</ele>
        <time>2012-12-30T10:01:51Z</time>
      </trkpt>
      <trkpt lat="43.23178" lon="6.39374">
        <ele>485.6640625</ele>
        <time>2012-12-30T10:01:57Z</time>
      </trkpt>
      <trkpt lat="43.23178" lon="6.3936">
        <ele>484.73828125</ele>
        <time>2012-12-30T10:02:08Z</time>
      </trkpt>
      <trkpt lat="43.23178" lon="6.39352">
        <ele>484.7890625</ele>
        <time>2012-12-30T10:02:12Z</time>
      </trkpt>
      <trkpt lat="43.23172" lon="6.39339">
        <ele>485.19921875</ele>
        <time>2012-12-30T10:02:20Z</time>
      </trkpt>
      <trkpt lat="43.23162" lon="6.39337">
        <ele>486.30078125</ele>
        <time>2012-12-30T10:02:32Z</time>
      </trkpt>
      <trkpt lat="43.23157" lon="6.39335">
        <ele>486.734375</ele>
        <time>2012-12-30T10:02:44Z</time>
      </trkpt>
      <trkpt lat="43.23149" lon="6.39329">
        <ele>487.4375</ele>
        <time>2012-12-30T10:03:05Z</time>
      </trkpt>
      <trkpt lat="43.23145" lon="6.39313">
        <ele>487.890625</ele>
        <time>2012-12-30T10:03:17Z</time>
      </trkpt>
      <trkpt lat="43.23143" lon="6.39308">
        <ele>488.13671875</ele>
        <time>2012-12-30T10:03:20Z</time>
      </trkpt>
      <trkpt lat="43.23139" lon="6.3929">
        <ele>489.74609375</ele>
        <time>2012-12-30T10:03:31Z</time>
      </trkpt>
      <trkpt lat="43.23137" lon="6.39285">
        <ele>490.3984375</ele>
        <time>2012-12-30T10:03:33Z</time>
      </trkpt>
      <trkpt lat="43.23127" lon="6.3926">
        <ele>493.484375</ele>
        <time>2012-12-30T10:03:48Z</time>
      </trkpt>
      <trkpt lat="43.23125" lon="6.39252">
        <ele>494.23046875</ele>
        <time>2012-12-30T10:04:03Z</time>
      </trkpt>
      <trkpt lat="43.23121" lon="6.39245">
        <ele>494.9921875</ele>
        <time>2012-12-30T10:04:16Z</time>
      </trkpt>
      <trkpt lat="43.23115" lon="6.39229">
        <ele>496.6796875</ele>
        <time>2012-12-30T10:04:27Z</time>
      </trkpt>
      <trkpt lat="43.23113" lon="6.39221">
        <ele>497.41796875</ele>
        <time>2012-12-30T10:04:32Z</time>
      </trkpt>
      <trkpt lat="43.23109" lon="6.39198">
        <ele>499.51953125</ele>
        <time>2012-12-30T10:04:46Z</time>
      </trkpt>
      <trkpt lat="43.231" lon="6.39176">
        <ele>502.8984375</ele>
        <time>2012-12-30T10:04:59Z</time>
      </trkpt>
      <trkpt lat="43.23092" lon="6.39163">
        <ele>505.13671875</ele>
        <time>2012-12-30T10:05:10Z</time>
      </trkpt>
      <trkpt lat="43.23091" lon="6.39159">
        <ele>505.62109375</ele>
        <time>2012-12-30T10:05:13Z</time>
      </trkpt>
      <trkpt lat="43.23088" lon="6.39155">
        <ele>506.203125</ele>
        <time>2012-12-30T10:05:17Z</time>
      </trkpt>
      <trkpt lat="43.23082" lon="6.39151">
        <ele>506.828125</ele>
        <time>2012-12-30T10:05:24Z</time>
      </trkpt>
      <trkpt lat="43.2308" lon="6.39141">
        <ele>507.8046875</ele>
        <time>2012-12-30T10:05:32Z</time>
      </trkpt>
      <trkpt lat="43.23071" lon="6.3911">
        <ele>510.46484375</ele>
        <time>2012-12-30T10:05:51Z</time>
      </trkpt>
      <trkpt lat="43.23071" lon="6.39107">
        <ele>510.76953125</ele>
        <time>2012-12-30T10:05:53Z</time>
      </trkpt>
      <trkpt lat="43.23059" lon="6.39061">
        <ele>513.23828125</ele>
        <time>2012-12-30T10:06:11Z</time>
      </trkpt>
      <trkpt lat="43.23047" lon="6.39">
        <ele>514.2890625</ele>
        <time>2012-12-30T10:06:25Z</time>
      </trkpt>
      <trkpt lat="43.23045" lon="6.38968">
        <ele>514.32421875</ele>
        <time>2012-12-30T10:06:30Z</time>
      </trkpt>
      <trkpt lat="43.23043" lon="6.38924">
        <ele>513.875</ele>
        <time>2012-12-30T10:06:36Z</time>
      </trkpt>
      <trkpt lat="43.23037" lon="6.38876">
        <ele>510.50390625</ele>
        <time>2012-12-30T10:06:42Z</time>
      </trkpt>
      <trkpt lat="43.23034" lon="6.38845">
        <ele>510.73046875</ele>
        <time>2012-12-30T10:06:46Z</time>
      </trkpt>
      <trkpt lat="43.2302" lon="6.38813">
        <ele>506.99609375</ele>
        <time>2012-12-30T10:06:51Z</time>
      </trkpt>
      <trkpt lat="43.22976" lon="6.38755">
        <ele>499.33203125</ele>
        <time>2012-12-30T10:07:06Z</time>
      </trkpt>
      <trkpt lat="43.22958" lon="6.3873">
        <ele>498.91796875</ele>
        <time>2012-12-30T10:07:20Z</time>
      </trkpt>
      <trkpt lat="43.22958" lon="6.38727">
        <ele>499.26953125</ele>
        <time>2012-12-30T10:07:44Z</time>
      </trkpt>
      <trkpt lat="43.22958" lon="6.38727">
        <ele>499.21484375</ele>
        <time>2012-12-30T10:08:17Z</time>
      </trkpt>
      <trkpt lat="43.2295" lon="6.38681">
        <ele>505.03125</ele>
        <time>2012-12-30T10:08:33Z</time>
      </trkpt>
      <trkpt lat="43.22944" lon="6.38642">
        <ele>504.08984375</ele>
        <time>2012-12-30T10:08:40Z</time>
      </trkpt>
      <trkpt lat="43.22942" lon="6.38574">
        <ele>502.14453125</ele>
        <time>2012-12-30T10:08:50Z</time>
      </trkpt>
      <trkpt lat="43.22934" lon="6.38548">
        <ele>498.67578125</ele>
        <time>2012-12-30T10:08:55Z</time>
      </trkpt>
      <trkpt lat="43.22918" lon="6.38506">
        <ele>492.9453125</ele>
        <time>2012-12-30T10:09:03Z</time>
      </trkpt>
      <trkpt lat="43.22891" lon="6.38462">
        <ele>484.12109375</ele>
        <time>2012-12-30T10:09:11Z</time>
      </trkpt>
      <trkpt lat="43.22886" lon="6.38443">
        <ele>482.6875</ele>
        <time>2012-12-30T10:09:14Z</time>
      </trkpt>
      <trkpt lat="43.22889" lon="6.38431">
        <ele>483.2421875</ele>
        <time>2012-12-30T10:09:16Z</time>
      </trkpt>
      <trkpt lat="43.22894" lon="6.38419">
        <ele>484.15234375</ele>
        <time>2012-12-30T10:09:18Z</time>
      </trkpt>
      <trkpt lat="43.22905" lon="6.38407">
        <ele>485.15625</ele>
        <time>2012-12-30T10:09:21Z</time>
      </trkpt>
      <trkpt lat="43.22915" lon="6.38404">
        <ele>486.44140625</ele>
        <time>2012-12-30T10:09:23Z</time>
      </trkpt>
      <trkpt lat="43.22924" lon="6.38402">
        <ele>488.0703125</ele>
        <time>2012-12-30T10:09:25Z</time>
      </trkpt>
      <trkpt lat="43.22938" lon="6.38356">
        <ele>483.78125</ele>
        <time>2012-12-30T10:09:33Z</time>
      </trkpt>
      <trkpt lat="43.2294" lon="6.38349">
        <ele>483.1796875</ele>
        <time>2012-12-30T10:09:34Z</time>
      </trkpt>
      <trkpt lat="43.22949" lon="6.38321">
        <ele>480.890625</ele>
        <time>2012-12-30T10:09:38Z</time>
      </trkpt>
      <trkpt lat="43.22965" lon="6.38292">
        <ele>479.23046875</ele>
        <time>2012-12-30T10:09:43Z</time>
      </trkpt>
      <trkpt lat="43.22963" lon="6.38283">
        <ele>477.35546875</ele>
        <time>2012-12-30T10:09:55Z</time>
      </trkpt>
      <trkpt lat="43.2295" lon="6.38279">
        <ele>474.34765625</ele>
        <time>2012-12-30T10:10:01Z</time>
      </trkpt>
      <trkpt lat="43.22937" lon="6.38277">
        <ele>471.55078125</ele>
        <time>2012-12-30T10:10:08Z</time>
      </trkpt>
      <trkpt lat="43.22932" lon="6.38277">
        <ele>470.71875</ele>
        <time>2012-12-30T10:10:11Z</time>
      </trkpt>
      <trkpt lat="43.22923" lon="6.38262">
        <ele>466.953125</ele>
        <time>2012-12-30T10:10:20Z</time>
      </trkpt>
      <trkpt lat="43.22921" lon="6.38255">
        <ele>465.6484375</ele>
        <time>2012-12-30T10:10:22Z</time>
      </trkpt>
      <trkpt lat="43.22921" lon="6.3824">
        <ele>463.35546875</ele>
        <time>2012-12-30T10:10:32Z</time>
      </trkpt>
      <trkpt lat="43.22918" lon="6.38236">
        <ele>462.04296875</ele>
        <time>2012-12-30T10:10:34Z</time>
      </trkpt>
      <trkpt lat="43.22917" lon="6.38233">
        <ele>461.1328125</ele>
        <time>2012-12-30T10:10:36Z</time>
      </trkpt>
      <trkpt lat="43.22918" lon="6.38229">
        <ele>461.04296875</ele>
        <time>2012-12-30T10:10:44Z</time>
      </trkpt>
      <trkpt lat="43.22917" lon="6.38222">
        <ele>459.7265625</ele>
        <time>2012-12-30T10:10:47Z</time>
      </trkpt>
      <trkpt lat="43.22916" lon="6.38217">
        <ele>458.80078125</ele>
        <time>2012-12-30T10:10:49Z</time>
      </trkpt>
      <trkpt lat="43.2291" lon="6.382">
        <ele>455.19921875</ele>
        <time>2012-12-30T10:10:58Z</time>
      </trkpt>
      <trkpt lat="43.22909" lon="6.38198">
        <ele>454.69921875</ele>
        <time>2012-12-30T10:10:59Z</time>
      </trkpt>
      <trkpt lat="43.2291" lon="6.38176">
        <ele>451.70703125</ele>
        <time>2012-12-30T10:11:05Z</time>
      </trkpt>
      <trkpt lat="43.22909" lon="6.38162">
        <ele>449.50390625</ele>
        <time>2012-12-30T10:11:10Z</time>
      </trkpt>
      <trkpt lat="43.22899" lon="6.38135">
        <ele>444.51171875</ele>
        <time>2012-12-30T10:11:17Z</time>
      </trkpt>
      <trkpt lat="43.2289" lon="6.38115">
        <ele>440.58984375</ele>
        <time>2012-12-30T10:11:24Z</time>
      </trkpt>
      <trkpt lat="43.22894" lon="6.3811">
        <ele>439.84765625</ele>
        <time>2012-12-30T10:11:27Z</time>
      </trkpt>
      <trkpt lat="43.22895" lon="6.38097">
        <ele>437.36328125</ele>
        <time>2012-12-30T10:11:32Z</time>
      </trkpt>
      <trkpt lat="43.22897" lon="6.38089">
        <ele>435.8515625</ele>
        <time>2012-12-30T10:11:35Z</time>
      </trkpt>
      <trkpt lat="43.229" lon="6.3808">
        <ele>433.94140625</ele>
        <time>2012-12-30T10:11:40Z</time>
      </trkpt>
      <trkpt lat="43.22898" lon="6.38075">
        <ele>433.05078125</ele>
        <time>2012-12-30T10:11:42Z</time>
      </trkpt>
      <trkpt lat="43.22895" lon="6.38071">
        <ele>432.35546875</ele>
        <time>2012-12-30T10:11:49Z</time>
      </trkpt>
      <trkpt lat="43.22898" lon="6.38055">
        <ele>428.640625</ele>
        <time>2012-12-30T10:11:56Z</time>
      </trkpt>
      <trkpt lat="43.22898" lon="6.38042">
        <ele>425.73046875</ele>
        <time>2012-12-30T10:12:01Z</time>
      </trkpt>
      <trkpt lat="43.22901" lon="6.38029">
        <ele>422.82421875</ele>
        <time>2012-12-30T10:12:07Z</time>
      </trkpt>
      <trkpt lat="43.22902" lon="6.38022">
        <ele>421.08984375</ele>
        <time>2012-12-30T10:12:10Z</time>
      </trkpt>
      <trkpt lat="43.22904" lon="6.38016">
        <ele>419.390625</ele>
        <time>2012-12-30T10:12:22Z</time>
      </trkpt>
      <trkpt lat="43.22904" lon="6.3801">
        <ele>418.02734375</ele>
        <time>2012-12-30T10:12:26Z</time>
      </trkpt>
      <trkpt lat="43.22904" lon="6.38008">
        <ele>417.57421875</ele>
        <time>2012-12-30T10:12:29Z</time>
      </trkpt>
      <trkpt lat="43.22908" lon="6.37998">
        <ele>414.84765625</ele>
        <time>2012-12-30T10:12:35Z</time>
      </trkpt>
      <trkpt lat="43.22904" lon="6.37985">
        <ele>411.921875</ele>
        <time>2012-12-30T10:12:40Z</time>
      </trkpt>
      <trkpt lat="43.22901" lon="6.37975">
        <ele>409.52734375</ele>
        <time>2012-12-30T10:12:44Z</time>
      </trkpt>
      <trkpt lat="43.22899" lon="6.37971">
        <ele>408.2890625</ele>
        <time>2012-12-30T10:12:46Z</time>
      </trkpt>
      <trkpt lat="43.22897" lon="6.37954">
        <ele>403.78515625</ele>
        <time>2012-12-30T10:12:52Z</time>
      </trkpt>
      <trkpt lat="43.22895" lon="6.37947">
        <ele>401.5546875</ele>
        <time>2012-12-30T10:12:55Z</time>
      </trkpt>
      <trkpt lat="43.22895" lon="6.37945">
        <ele>401.046875</ele>
        <time>2012-12-30T10:12:56Z</time>
      </trkpt>
      <trkpt lat="43.22897" lon="6.37941">
        <ele>399.7578125</ele>
        <time>2012-12-30T10:12:59Z</time>
      </trkpt>
      <trkpt lat="43.22896" lon="6.37938">
        <ele>398.81640625</ele>
        <time>2012-12-30T10:13:01Z</time>
      </trkpt>
      <trkpt lat="43.22895" lon="6.37934">
        <ele>397.62890625</ele>
        <time>2012-12-30T10:13:16Z</time>
      </trkpt>
      <trkpt lat="43.22892" lon="6.37923">
        <ele>393.90234375</ele>
        <time>2012-12-30T10:13:21Z</time>
      </trkpt>
      <trkpt lat="43.22892" lon="6.37921">
        <ele>393.16015625</ele>
        <time>2012-12-30T10:13:22Z</time>
      </trkpt>
      <trkpt lat="43.22892" lon="6.37915">
        <ele>391.3203125</ele>
        <time>2012-12-30T10:13:26Z</time>
      </trkpt>
      <trkpt lat="43.2289" lon="6.379">
        <ele>387.37890625</ele>
        <time>2012-12-30T10:13:32Z</time>
      </trkpt>
      <trkpt lat="43.22888" lon="6.37891">
        <ele>384.6015625</ele>
        <time>2012-12-30T10:13:36Z</time>
      </trkpt>
      <trkpt lat="43.22883" lon="6.3788">
        <ele>381.07421875</ele>
        <time>2012-12-30T10:13:41Z</time>
      </trkpt>
      <trkpt lat="43.22877" lon="6.37866">
        <ele>376.109375</ele>
        <time>2012-12-30T10:13:47Z</time>
      </trkpt>
      <trkpt lat="43.22874" lon="6.37862">
        <ele>374.1953125</ele>
        <time>2012-12-30T10:13:50Z</time>
      </trkpt>
      <trkpt lat="43.22869" lon="6.37853">
        <ele>371.3515625</ele>
        <time>2012-12-30T10:13:57Z</time>
      </trkpt>
      <trkpt lat="43.22865" lon="6.37845">
        <ele>369.171875</ele>
        <time>2012-12-30T10:14:11Z</time>
      </trkpt>
      <trkpt lat="43.22862" lon="6.37842">
        <ele>368.7734375</ele>
        <time>2012-12-30T10:14:19Z</time>
      </trkpt>
      <trkpt lat="43.22862" lon="6.37841">
        <ele>368.59375</ele>
        <time>2012-12-30T10:14:23Z</time>
      </trkpt>
      <trkpt lat="43.22855" lon="6.37828">
        <ele>366.4140625</ele>
        <time>2012-12-30T10:14:30Z</time>
      </trkpt>
      <trkpt lat="43.22852" lon="6.37817">
        <ele>364.49609375</ele>
        <time>2012-12-30T10:14:34Z</time>
      </trkpt>
      <trkpt lat="43.22842" lon="6.37797">
        <ele>359.9375</ele>
        <time>2012-12-30T10:14:40Z</time>
      </trkpt>
      <trkpt lat="43.22839" lon="6.37784">
        <ele>357.12109375</ele>
        <time>2012-12-30T10:14:43Z</time>
      </trkpt>
      <trkpt lat="43.22837" lon="6.3778">
        <ele>356.07421875</ele>
        <time>2012-12-30T10:14:44Z</time>
      </trkpt>
      <trkpt lat="43.22831" lon="6.37767">
        <ele>353.47265625</ele>
        <time>2012-12-30T10:14:48Z</time>
      </trkpt>
      <trkpt lat="43.22825" lon="6.37759">
        <ele>351.2265625</ele>
        <time>2012-12-30T10:14:50Z</time>
      </trkpt>
      <trkpt lat="43.2282" lon="6.37749">
        <ele>348.90625</ele>
        <time>2012-12-30T10:14:55Z</time>
      </trkpt>
      <trkpt lat="43.22817" lon="6.37735">
        <ele>347.26953125</ele>
        <time>2012-12-30T10:15:00Z</time>
      </trkpt>
      <trkpt lat="43.22813" lon="6.37738">
        <ele>346.65234375</ele>
        <time>2012-12-30T10:15:14Z</time>
      </trkpt>
      <trkpt lat="43.22812" lon="6.37739">
        <ele>346.55859375</ele>
        <time>2012-12-30T10:15:53Z</time>
      </trkpt>
      <trkpt lat="43.22784" lon="6.37769">
        <ele>348.11328125</ele>
        <time>2012-12-30T10:16:12Z</time>
      </trkpt>
      <trkpt lat="43.22757" lon="6.37796">
        <ele>351.19140625</ele>
        <time>2012-12-30T10:16:27Z</time>
      </trkpt>
      <trkpt lat="43.22746" lon="6.37785">
        <ele>347.11328125</ele>
        <time>2012-12-30T10:16:34Z</time>
      </trkpt>
      <trkpt lat="43.22759" lon="6.37754">
        <ele>343.71875</ele>
        <time>2012-12-30T10:16:47Z</time>
      </trkpt>
      <trkpt lat="43.22761" lon="6.37748">
        <ele>343.08203125</ele>
        <time>2012-12-30T10:16:49Z</time>
      </trkpt>
      <trkpt lat="43.22763" lon="6.37736">
        <ele>342.47265625</ele>
        <time>2012-12-30T10:16:53Z</time>
      </trkpt>
      <trkpt lat="43.22769" lon="6.37726">
        <ele>341.7109375</ele>
        <time>2012-12-30T10:16:57Z</time>
      </trkpt>
      <trkpt lat="43.22784" lon="6.37685">
        <ele>337.78125</ele>
        <time>2012-12-30T10:17:11Z</time>
      </trkpt>
      <trkpt lat="43.22787" lon="6.37675">
        <ele>337.671875</ele>
        <time>2012-12-30T10:17:14Z</time>
      </trkpt>
      <trkpt lat="43.228" lon="6.37631">
        <ele>336.64453125</ele>
        <time>2012-12-30T10:17:26Z</time>
      </trkpt>
      <trkpt lat="43.22809" lon="6.37574">
        <ele>334.25</ele>
        <time>2012-12-30T10:17:41Z</time>
      </trkpt>
      <trkpt lat="43.22828" lon="6.37515">
        <ele>335.11328125</ele>
        <time>2012-12-30T10:17:59Z</time>
      </trkpt>
      <trkpt lat="43.22831" lon="6.37483">
        <ele>335.296875</ele>
        <time>2012-12-30T10:18:08Z</time>
      </trkpt>
      <trkpt lat="43.22848" lon="6.37451">
        <ele>334.890625</ele>
        <time>2012-12-30T10:18:21Z</time>
      </trkpt>
      <trkpt lat="43.22851" lon="6.37447">
        <ele>334.6796875</ele>
        <time>2012-12-30T10:18:23Z</time>
      </trkpt>
      <trkpt lat="43.22864" lon="6.37411">
        <ele>333.94921875</ele>
        <time>2012-12-30T10:18:36Z</time>
      </trkpt>
      <trkpt lat="43.22877" lon="6.37372">
        <ele>336.13671875</ele>
        <time>2012-12-30T10:18:49Z</time>
      </trkpt>
      <trkpt lat="43.22888" lon="6.37317">
        <ele>336.671875</ele>
        <time>2012-12-30T10:19:05Z</time>
      </trkpt>
      <trkpt lat="43.22883" lon="6.37273">
        <ele>337.91796875</ele>
        <time>2012-12-30T10:19:18Z</time>
      </trkpt>
      <trkpt lat="43.22891" lon="6.37241">
        <ele>335.33203125</ele>
        <time>2012-12-30T10:19:29Z</time>
      </trkpt>
      <trkpt lat="43.22898" lon="6.37223">
        <ele>333.859375</ele>
        <time>2012-12-30T10:19:36Z</time>
      </trkpt>
      <trkpt lat="43.22899" lon="6.37207">
        <ele>333.48828125</ele>
        <time>2012-12-30T10:19:42Z</time>
      </trkpt>
      <trkpt lat="43.22898" lon="6.37187">
        <ele>334.3515625</ele>
        <time>2012-12-30T10:19:49Z</time>
      </trkpt>
      <trkpt lat="43.22895" lon="6.37171">
        <ele>336.25</ele>
        <time>2012-12-30T10:19:54Z</time>
      </trkpt>
      <trkpt lat="43.22887" lon="6.37148">
        <ele>341.23046875</ele>
        <time>2012-12-30T10:20:02Z</time>
      </trkpt>
      <trkpt lat="43.22901" lon="6.37129">
        <ele>337.578125</ele>
        <time>2012-12-30T10:20:10Z</time>
      </trkpt>
      <trkpt lat="43.22922" lon="6.37094">
        <ele>335.15234375</ele>
        <time>2012-12-30T10:20:25Z</time>
      </trkpt>
      <trkpt lat="43.22948" lon="6.37049">
        <ele>337.15234375</ele>
        <time>2012-12-30T10:20:42Z</time>
      </trkpt>
      <trkpt lat="43.22952" lon="6.37022">
        <ele>341.56640625</ele>
        <time>2012-12-30T10:20:50Z</time>
      </trkpt>
      <trkpt lat="43.22966" lon="6.37005">
        <ele>341.69140625</ele>
        <time>2012-12-30T10:20:57Z</time>
      </trkpt>
      <trkpt lat="43.22969" lon="6.37">
        <ele>341.98046875</ele>
        <time>2012-12-30T10:20:59Z</time>
      </trkpt>
      <trkpt lat="43.22979" lon="6.36992">
        <ele>342.10546875</ele>
        <time>2012-12-30T10:21:04Z</time>
      </trkpt>
      <trkpt lat="43.23005" lon="6.36983">
        <ele>340.7734375</ele>
        <time>2012-12-30T10:21:17Z</time>
      </trkpt>
      <trkpt lat="43.23011" lon="6.36977">
        <ele>340.68359375</ele>
        <time>2012-12-30T10:21:20Z</time>
      </trkpt>
      <trkpt lat="43.2303" lon="6.3695">
        <ele>341.74609375</ele>
        <time>2012-12-30T10:21:32Z</time>
      </trkpt>
      <trkpt lat="43.23035" lon="6.36944">
        <ele>341.640625</ele>
        <time>2012-12-30T10:21:34Z</time>
      </trkpt>
      <trkpt lat="43.23056" lon="6.36914">
        <ele>341.11328125</ele>
        <time>2012-12-30T10:21:46Z</time>
      </trkpt>
      <trkpt lat="43.23083" lon="6.36871">
        <ele>340.9453125</ele>
        <time>2012-12-30T10:22:01Z</time>
      </trkpt>
      <trkpt lat="43.23111" lon="6.36834">
        <ele>342.63671875</ele>
        <time>2012-12-30T10:22:15Z</time>
      </trkpt>
      <trkpt lat="43.23146" lon="6.36807">
        <ele>341.00390625</ele>
        <time>2012-12-30T10:22:30Z</time>
      </trkpt>
      <trkpt lat="43.23158" lon="6.36799">
        <ele>340.30859375</ele>
        <time>2012-12-30T10:22:35Z</time>
      </trkpt>
      <trkpt lat="43.23196" lon="6.36762">
        <ele>341.62890625</ele>
        <time>2012-12-30T10:22:53Z</time>
      </trkpt>
      <trkpt lat="43.23228" lon="6.36729">
        <ele>344.85546875</ele>
        <time>2012-12-30T10:23:09Z</time>
      </trkpt>
      <trkpt lat="43.23233" lon="6.36707">
        <ele>347.74609375</ele>
        <time>2012-12-30T10:23:16Z</time>
      </trkpt>
      <trkpt lat="43.23242" lon="6.36677">
        <ele>349.37890625</ele>
        <time>2012-12-30T10:23:26Z</time>
      </trkpt>
      <trkpt lat="43.23255" lon="6.36653">
        <ele>347.01171875</ele>
        <time>2012-12-30T10:23:35Z</time>
      </trkpt>
      <trkpt lat="43.23272" lon="6.36603">
        <ele>347.92578125</ele>
        <time>2012-12-30T10:23:51Z</time>
      </trkpt>
      <trkpt lat="43.23298" lon="6.36555">
        <ele>350.453125</ele>
        <time>2012-12-30T10:24:07Z</time>
      </trkpt>
      <trkpt lat="43.23324" lon="6.36511">
        <ele>352.94921875</ele>
        <time>2012-12-30T10:24:23Z</time>
      </trkpt>
      <trkpt lat="43.23315" lon="6.36482">
        <ele>356.07421875</ele>
        <time>2012-12-30T10:24:35Z</time>
      </trkpt>
      <trkpt lat="43.2328" lon="6.36487">
        <ele>360.046875</ele>
        <time>2012-12-30T10:24:49Z</time>
      </trkpt>
      <trkpt lat="43.2327" lon="6.36527">
        <ele>358.50390625</ele>
        <time>2012-12-30T10:25:01Z</time>
      </trkpt>
      <trkpt lat="43.23255" lon="6.36554">
        <ele>359.0703125</ele>
        <time>2012-12-30T10:25:11Z</time>
      </trkpt>
      <trkpt lat="43.23204" lon="6.36564">
        <ele>366.32421875</ele>
        <time>2012-12-30T10:25:29Z</time>
      </trkpt>
      <trkpt lat="43.23154" lon="6.36564">
        <ele>371.01953125</ele>
        <time>2012-12-30T10:25:46Z</time>
      </trkpt>
      <trkpt lat="43.23148" lon="6.36546">
        <ele>368.10546875</ele>
        <time>2012-12-30T10:25:52Z</time>
      </trkpt>
      <trkpt lat="43.23155" lon="6.36483">
        <ele>357.796875</ele>
        <time>2012-12-30T10:26:10Z</time>
      </trkpt>
      <trkpt lat="43.23152" lon="6.36442">
        <ele>357.8125</ele>
        <time>2012-12-30T10:26:22Z</time>
      </trkpt>
      <trkpt lat="43.23123" lon="6.36421">
        <ele>364.390625</ele>
        <time>2012-12-30T10:26:35Z</time>
      </trkpt>
      <trkpt lat="43.23085" lon="6.36422">
        <ele>372.70703125</ele>
        <time>2012-12-30T10:26:50Z</time>
      </trkpt>
      <trkpt lat="43.23079" lon="6.36422">
        <ele>373.7578125</ele>
        <time>2012-12-30T10:26:52Z</time>
      </trkpt>
      <trkpt lat="43.23071" lon="6.364">
        <ele>369.5078125</ele>
        <time>2012-12-30T10:27:00Z</time>
      </trkpt>
      <trkpt lat="43.23067" lon="6.36393">
        <ele>368.1328125</ele>
        <time>2012-12-30T10:27:03Z</time>
      </trkpt>
      <trkpt lat="43.23046" lon="6.36373">
        <ele>367.95703125</ele>
        <time>2012-12-30T10:27:15Z</time>
      </trkpt>
      <trkpt lat="43.23018" lon="6.36355">
        <ele>372.21875</ele>
        <time>2012-12-30T10:27:32Z</time>
      </trkpt>
      <trkpt lat="43.22988" lon="6.36362">
        <ele>380.234375</ele>
        <time>2012-12-30T10:27:50Z</time>
      </trkpt>
      <trkpt lat="43.22951" lon="6.36388">
        <ele>390.375</ele>
        <time>2012-12-30T10:28:11Z</time>
      </trkpt>
      <trkpt lat="43.22909" lon="6.36404">
        <ele>393.5703125</ele>
        <time>2012-12-30T10:28:33Z</time>
      </trkpt>
      <trkpt lat="43.22885" lon="6.36409">
        <ele>394.7109375</ele>
        <time>2012-12-30T10:28:43Z</time>
      </trkpt>
      <trkpt lat="43.22882" lon="6.36386">
        <ele>387.52734375</ele>
        <time>2012-12-30T10:28:51Z</time>
      </trkpt>
      <trkpt lat="43.22907" lon="6.36347">
        <ele>377.61328125</ele>
        <time>2012-12-30T10:29:09Z</time>
      </trkpt>
      <trkpt lat="43.22928" lon="6.3631">
        <ele>371.32421875</ele>
        <time>2012-12-30T10:29:27Z</time>
      </trkpt>
      <trkpt lat="43.22931" lon="6.36303">
        <ele>371.1640625</ele>
        <time>2012-12-30T10:29:30Z</time>
      </trkpt>
      <trkpt lat="43.22933" lon="6.36288">
        <ele>372.18359375</ele>
        <time>2012-12-30T10:29:36Z</time>
      </trkpt>
      <trkpt lat="43.22937" lon="6.36275">
        <ele>372.796875</ele>
        <time>2012-12-30T10:29:42Z</time>
      </trkpt>
      <trkpt lat="43.2295" lon="6.36242">
        <ele>373.08984375</ele>
        <time>2012-12-30T10:29:56Z</time>
      </trkpt>
      <trkpt lat="43.22953" lon="6.36235">
        <ele>373.07421875</ele>
        <time>2012-12-30T10:29:59Z</time>
      </trkpt>
      <trkpt lat="43.22959" lon="6.36213">
        <ele>374.9921875</ele>
        <time>2012-12-30T10:30:09Z</time>
      </trkpt>
      <trkpt lat="43.22961" lon="6.36207">
        <ele>375.57421875</ele>
        <time>2012-12-30T10:30:12Z</time>
      </trkpt>
      <trkpt lat="43.22963" lon="6.36187">
        <ele>379.14453125</ele>
        <time>2012-12-30T10:30:21Z</time>
      </trkpt>
      <trkpt lat="43.22966" lon="6.36157">
        <ele>386.265625</ele>
        <time>2012-12-30T10:30:35Z</time>
      </trkpt>
      <trkpt lat="43.22973" lon="6.36154">
        <ele>385.6640625</ele>
        <time>2012-12-30T10:30:38Z</time>
      </trkpt>
      <trkpt lat="43.22984" lon="6.36151">
        <ele>384.9296875</ele>
        <time>2012-12-30T10:30:44Z</time>
      </trkpt>
      <trkpt lat="43.22999" lon="6.36151">
        <ele>384.1015625</ele>
        <time>2012-12-30T10:30:51Z</time>
      </trkpt>
      <trkpt lat="43.23026" lon="6.36154">
        <ele>383.16015625</ele>
        <time>2012-12-30T10:31:03Z</time>
      </trkpt>
      <trkpt lat="43.23054" lon="6.36153">
        <ele>384.875</ele>
        <time>2012-12-30T10:31:17Z</time>
      </trkpt>
      <trkpt lat="43.23097" lon="6.36153">
        <ele>381.46484375</ele>
        <time>2012-12-30T10:31:38Z</time>
      </trkpt>
      <trkpt lat="43.23126" lon="6.36127">
        <ele>382.125</ele>
        <time>2012-12-30T10:31:56Z</time>
      </trkpt>
      <trkpt lat="43.23134" lon="6.36085">
        <ele>386.35546875</ele>
        <time>2012-12-30T10:32:12Z</time>
      </trkpt>
      <trkpt lat="43.23139" lon="6.36054">
        <ele>386.58984375</ele>
        <time>2012-12-30T10:32:23Z</time>
      </trkpt>
      <trkpt lat="43.23142" lon="6.36015">
        <ele>387.6015625</ele>
        <time>2012-12-30T10:32:37Z</time>
      </trkpt>
      <trkpt lat="43.23138" lon="6.35965">
        <ele>391.8984375</ele>
        <time>2012-12-30T10:32:56Z</time>
      </trkpt>
      <trkpt lat="43.23137" lon="6.35927">
        <ele>393.74609375</ele>
        <time>2012-12-30T10:33:10Z</time>
      </trkpt>
      <trkpt lat="43.23137" lon="6.35899">
        <ele>395.55859375</ele>
        <time>2012-12-30T10:33:21Z</time>
      </trkpt>
      <trkpt lat="43.23144" lon="6.35855">
        <ele>395.8984375</ele>
        <time>2012-12-30T10:33:37Z</time>
      </trkpt>
      <trkpt lat="43.23152" lon="6.35826">
        <ele>397.91015625</ele>
        <time>2012-12-30T10:33:48Z</time>
      </trkpt>
      <trkpt lat="43.23158" lon="6.35794">
        <ele>402.1875</ele>
        <time>2012-12-30T10:34:01Z</time>
      </trkpt>
      <trkpt lat="43.2316" lon="6.35765">
        <ele>406.63671875</ele>
        <time>2012-12-30T10:34:11Z</time>
      </trkpt>
      <trkpt lat="43.23151" lon="6.35734">
        <ele>409.796875</ele>
        <time>2012-12-30T10:34:22Z</time>
      </trkpt>
      <trkpt lat="43.23119" lon="6.3572">
        <ele>410.5703125</ele>
        <time>2012-12-30T10:34:38Z</time>
      </trkpt>
      <trkpt lat="43.23089" lon="6.35732">
        <ele>414.01171875</ele>
        <time>2012-12-30T10:34:52Z</time>
      </trkpt>
      <trkpt lat="43.23047" lon="6.35735">
        <ele>418.73828125</ele>
        <time>2012-12-30T10:35:11Z</time>
      </trkpt>
      <trkpt lat="43.23003" lon="6.35733">
        <ele>421.828125</ele>
        <time>2012-12-30T10:35:33Z</time>
      </trkpt>
      <trkpt lat="43.22968" lon="6.35711">
        <ele>419.01953125</ele>
        <time>2012-12-30T10:35:51Z</time>
      </trkpt>
      <trkpt lat="43.22943" lon="6.35673">
        <ele>414.43359375</ele>
        <time>2012-12-30T10:36:10Z</time>
      </trkpt>
      <trkpt lat="43.229" lon="6.35667">
        <ele>420.57421875</ele>
        <time>2012-12-30T10:36:28Z</time>
      </trkpt>
      <trkpt lat="43.22868" lon="6.35651">
        <ele>418.4609375</ele>
        <time>2012-12-30T10:36:43Z</time>
      </trkpt>
      <trkpt lat="43.22856" lon="6.35652">
        <ele>418.66796875</ele>
        <time>2012-12-30T10:36:50Z</time>
      </trkpt>
      <trkpt lat="43.22854" lon="6.35663">
        <ele>419.99609375</ele>
        <time>2012-12-30T10:36:57Z</time>
      </trkpt>
      <trkpt lat="43.22855" lon="6.35667">
        <ele>420.4296875</ele>
        <time>2012-12-30T10:36:59Z</time>
      </trkpt>
      <trkpt lat="43.22862" lon="6.35669">
        <ele>420.92578125</ele>
        <time>2012-12-30T10:37:15Z</time>
      </trkpt>
      <trkpt lat="43.22864" lon="6.35671">
        <ele>421.20703125</ele>
        <time>2012-12-30T10:37:38Z</time>
      </trkpt>
      <trkpt lat="43.22864" lon="6.35671">
        <ele>421.2265625</ele>
        <time>2012-12-30T10:37:43Z</time>
      </trkpt>
      <trkpt lat="43.22866" lon="6.3567">
        <ele>421.21484375</ele>
        <time>2012-12-30T10:37:57Z</time>
      </trkpt>
      <trkpt lat="43.2287" lon="6.35671">
        <ele>421.37890625</ele>
        <time>2012-12-30T10:38:34Z</time>
      </trkpt>
      <trkpt lat="43.22868" lon="6.35672">
        <ele>421.40234375</ele>
        <time>2012-12-30T10:41:07Z</time>
      </trkpt>
      <trkpt lat="43.22867" lon="6.35672">
        <ele>421.38671875</ele>
        <time>2012-12-30T10:43:54Z</time>
      </trkpt>
      <trkpt lat="43.22866" lon="6.3567">
        <ele>421.1953125</ele>
        <time>2012-12-30T10:44:29Z</time>
      </trkpt>
      <trkpt lat="43.22866" lon="6.35671">
        <ele>421.23828125</ele>
        <time>2012-12-30T10:45:32Z</time>
      </trkpt>
      <trkpt lat="43.22867" lon="6.35674">
        <ele>421.57421875</ele>
        <time>2012-12-30T10:45:37Z</time>
      </trkpt>
      <trkpt lat="43.22889" lon="6.35706">
        <ele>426.91015625</ele>
        <time>2012-12-30T10:45:55Z</time>
      </trkpt>
      <trkpt lat="43.22895" lon="6.35753">
        <ele>434.4609375</ele>
        <time>2012-12-30T10:46:12Z</time>
      </trkpt>
      <trkpt lat="43.22883" lon="6.35803">
        <ele>439.453125</ele>
        <time>2012-12-30T10:46:30Z</time>
      </trkpt>
      <trkpt lat="43.22866" lon="6.35851">
        <ele>440.3046875</ele>
        <time>2012-12-30T10:46:49Z</time>
      </trkpt>
      <trkpt lat="43.22855" lon="6.35886">
        <ele>443.2578125</ele>
        <time>2012-12-30T10:47:01Z</time>
      </trkpt>
      <trkpt lat="43.22845" lon="6.35896">
        <ele>443.18359375</ele>
        <time>2012-12-30T10:47:07Z</time>
      </trkpt>
      <trkpt lat="43.22831" lon="6.35896">
        <ele>441.4609375</ele>
        <time>2012-12-30T10:47:13Z</time>
      </trkpt>
      <trkpt lat="43.22787" lon="6.35878">
        <ele>435.91796875</ele>
        <time>2012-12-30T10:47:31Z</time>
      </trkpt>
      <trkpt lat="43.22744" lon="6.35863">
        <ele>437.59375</ele>
        <time>2012-12-30T10:47:50Z</time>
      </trkpt>
      <trkpt lat="43.22722" lon="6.35849">
        <ele>437.7265625</ele>
        <time>2012-12-30T10:48:00Z</time>
      </trkpt>
      <trkpt lat="43.22717" lon="6.3584">
        <ele>436.6640625</ele>
        <time>2012-12-30T10:48:04Z</time>
      </trkpt>
      <trkpt lat="43.22693" lon="6.35797">
        <ele>434.1796875</ele>
        <time>2012-12-30T10:48:21Z</time>
      </trkpt>
      <trkpt lat="43.22664" lon="6.35762">
        <ele>436.125</ele>
        <time>2012-12-30T10:48:38Z</time>
      </trkpt>
      <trkpt lat="43.2264" lon="6.35734">
        <ele>437.375</ele>
        <time>2012-12-30T10:48:52Z</time>
      </trkpt>
      <trkpt lat="43.22641" lon="6.35731">
        <ele>436.734375</ele>
        <time>2012-12-30T10:48:53Z</time>
      </trkpt>
      <trkpt lat="43.22638" lon="6.35718">
        <ele>435.61328125</ele>
        <time>2012-12-30T10:48:58Z</time>
      </trkpt>
      <trkpt lat="43.22612" lon="6.35683">
        <ele>438.875</ele>
        <time>2012-12-30T10:49:13Z</time>
      </trkpt>
      <trkpt lat="43.22605" lon="6.35668">
        <ele>438.69140625</ele>
        <time>2012-12-30T10:49:20Z</time>
      </trkpt>
      <trkpt lat="43.22596" lon="6.35644">
        <ele>437.19140625</ele>
        <time>2012-12-30T10:49:29Z</time>
      </trkpt>
      <trkpt lat="43.22596" lon="6.35633">
        <ele>436.1796875</ele>
        <time>2012-12-30T10:49:33Z</time>
      </trkpt>
      <trkpt lat="43.22584" lon="6.35591">
        <ele>436.25</ele>
        <time>2012-12-30T10:49:46Z</time>
      </trkpt>
      <trkpt lat="43.2258" lon="6.35584">
        <ele>437.12890625</ele>
        <time>2012-12-30T10:49:49Z</time>
      </trkpt>
      <trkpt lat="43.22545" lon="6.35552">
        <ele>445.8515625</ele>
        <time>2012-12-30T10:50:08Z</time>
      </trkpt>
      <trkpt lat="43.22521" lon="6.35522">
        <ele>447.54296875</ele>
        <time>2012-12-30T10:50:21Z</time>
      </trkpt>
      <trkpt lat="43.22502" lon="6.35466">
        <ele>445.3515625</ele>
        <time>2012-12-30T10:50:39Z</time>
      </trkpt>
      <trkpt lat="43.2249" lon="6.35428">
        <ele>446.32421875</ele>
        <time>2012-12-30T10:50:52Z</time>
      </trkpt>
      <trkpt lat="43.225" lon="6.35391">
        <ele>443.03515625</ele>
        <time>2012-12-30T10:51:04Z</time>
      </trkpt>
      <trkpt lat="43.22519" lon="6.35349">
        <ele>442.01171875</ele>
        <time>2012-12-30T10:51:18Z</time>
      </trkpt>
      <trkpt lat="43.22508" lon="6.35296">
        <ele>443.703125</ele>
        <time>2012-12-30T10:51:32Z</time>
      </trkpt>
      <trkpt lat="43.22504" lon="6.35268">
        <ele>444.16015625</ele>
        <time>2012-12-30T10:51:37Z</time>
      </trkpt>
      <trkpt lat="43.22496" lon="6.35222">
        <ele>443.95703125</ele>
        <time>2012-12-30T10:51:46Z</time>
      </trkpt>
      <trkpt lat="43.22492" lon="6.35179">
        <ele>443.34765625</ele>
        <time>2012-12-30T10:51:53Z</time>
      </trkpt>
      <trkpt lat="43.22497" lon="6.35154">
        <ele>443</ele>
        <time>2012-12-30T10:52:00Z</time>
      </trkpt>
      <trkpt lat="43.22495" lon="6.35143">
        <ele>443</ele>
        <time>2012-12-30T10:52:04Z</time>
      </trkpt>
      <trkpt lat="43.2247" lon="6.35117">
        <ele>443.29296875</ele>
        <time>2012-12-30T10:52:17Z</time>
      </trkpt>
      <trkpt lat="43.2243" lon="6.35087">
        <ele>445.6796875</ele>
        <time>2012-12-30T10:52:32Z</time>
      </trkpt>
      <trkpt lat="43.22375" lon="6.35076">
        <ele>450.4609375</ele>
        <time>2012-12-30T10:52:52Z</time>
      </trkpt>
      <trkpt lat="43.22333" lon="6.35053">
        <ele>452.9921875</ele>
        <time>2012-12-30T10:53:11Z</time>
      </trkpt>
      <trkpt lat="43.22301" lon="6.35036">
        <ele>453.69140625</ele>
        <time>2012-12-30T10:53:26Z</time>
      </trkpt>
      <trkpt lat="43.22263" lon="6.35">
        <ele>453.9375</ele>
        <time>2012-12-30T10:53:44Z</time>
      </trkpt>
      <trkpt lat="43.22245" lon="6.34969">
        <ele>452.41015625</ele>
        <time>2012-12-30T10:53:51Z</time>
      </trkpt>
      <trkpt lat="43.22239" lon="6.34959">
        <ele>452.12890625</ele>
        <time>2012-12-30T10:53:53Z</time>
      </trkpt>
      <trkpt lat="43.22207" lon="6.34924">
        <ele>451.84375</ele>
        <time>2012-12-30T10:54:04Z</time>
      </trkpt>
      <trkpt lat="43.22184" lon="6.34876">
        <ele>452.17578125</ele>
        <time>2012-12-30T10:54:17Z</time>
      </trkpt>
      <trkpt lat="43.22149" lon="6.34816">
        <ele>454.45703125</ele>
        <time>2012-12-30T10:54:33Z</time>
      </trkpt>
      <trkpt lat="43.22115" lon="6.3477">
        <ele>456.55078125</ele>
        <time>2012-12-30T10:54:48Z</time>
      </trkpt>
      <trkpt lat="43.22098" lon="6.34717">
        <ele>456.59765625</ele>
        <time>2012-12-30T10:55:04Z</time>
      </trkpt>
      <trkpt lat="43.22091" lon="6.34702">
        <ele>456.21875</ele>
        <time>2012-12-30T10:55:08Z</time>
      </trkpt>
      <trkpt lat="43.22085" lon="6.34691">
        <ele>456.66796875</ele>
        <time>2012-12-30T10:55:11Z</time>
      </trkpt>
      <trkpt lat="43.2206" lon="6.34658">
        <ele>459.10546875</ele>
        <time>2012-12-30T10:55:26Z</time>
      </trkpt>
      <trkpt lat="43.22045" lon="6.34648">
        <ele>461.55078125</ele>
        <time>2012-12-30T10:55:35Z</time>
      </trkpt>
      <trkpt lat="43.22019" lon="6.34631">
        <ele>463.96875</ele>
        <time>2012-12-30T10:55:48Z</time>
      </trkpt>
      <trkpt lat="43.21995" lon="6.34622">
        <ele>464.79296875</ele>
        <time>2012-12-30T10:56:00Z</time>
      </trkpt>
      <trkpt lat="43.21965" lon="6.34615">
        <ele>465.33984375</ele>
        <time>2012-12-30T10:56:10Z</time>
      </trkpt>
      <trkpt lat="43.2192" lon="6.34598">
        <ele>465.52734375</ele>
        <time>2012-12-30T10:56:29Z</time>
      </trkpt>
      <trkpt lat="43.21896" lon="6.34562">
        <ele>465.09765625</ele>
        <time>2012-12-30T10:56:44Z</time>
      </trkpt>
      <trkpt lat="43.21875" lon="6.3451">
        <ele>464.6328125</ele>
        <time>2012-12-30T10:56:59Z</time>
      </trkpt>
      <trkpt lat="43.21857" lon="6.34464">
        <ele>464.83203125</ele>
        <time>2012-12-30T10:57:13Z</time>
      </trkpt>
      <trkpt lat="43.21822" lon="6.34415">
        <ele>465.55859375</ele>
        <time>2012-12-30T10:57:33Z</time>
      </trkpt>
      <trkpt lat="43.21788" lon="6.34382">
        <ele>466.0703125</ele>
        <time>2012-12-30T10:57:47Z</time>
      </trkpt>
      <trkpt lat="43.21781" lon="6.34371">
        <ele>465.66796875</ele>
        <time>2012-12-30T10:57:51Z</time>
      </trkpt>
      <trkpt lat="43.21747" lon="6.34348">
        <ele>467.09765625</ele>
        <time>2012-12-30T10:58:08Z</time>
      </trkpt>
      <trkpt lat="43.21731" lon="6.3431">
        <ele>467.796875</ele>
        <time>2012-12-30T10:58:23Z</time>
      </trkpt>
      <trkpt lat="43.21701" lon="6.34278">
        <ele>470.796875</ele>
        <time>2012-12-30T10:58:42Z</time>
      </trkpt>
      <trkpt lat="43.21698" lon="6.3427">
        <ele>470.90625</ele>
        <time>2012-12-30T10:58:45Z</time>
      </trkpt>
      <trkpt lat="43.21689" lon="6.34227">
        <ele>470.65625</ele>
        <time>2012-12-30T10:59:01Z</time>
      </trkpt>
      <trkpt lat="43.21662" lon="6.34188">
        <ele>472.48046875</ele>
        <time>2012-12-30T10:59:19Z</time>
      </trkpt>
      <trkpt lat="43.21628" lon="6.34149">
        <ele>473.22265625</ele>
        <time>2012-12-30T10:59:34Z</time>
      </trkpt>
      <trkpt lat="43.2162" lon="6.34115">
        <ele>472.69140625</ele>
        <time>2012-12-30T10:59:45Z</time>
      </trkpt>
      <trkpt lat="43.21586" lon="6.34066">
        <ele>475.25</ele>
        <time>2012-12-30T11:00:01Z</time>
      </trkpt>
      <trkpt lat="43.21594" lon="6.34024">
        <ele>474.546875</ele>
        <time>2012-12-30T11:00:14Z</time>
      </trkpt>
      <trkpt lat="43.21586" lon="6.33989">
        <ele>475.7578125</ele>
        <time>2012-12-30T11:00:28Z</time>
      </trkpt>
      <trkpt lat="43.21572" lon="6.33956">
        <ele>477.234375</ele>
        <time>2012-12-30T11:00:45Z</time>
      </trkpt>
      <trkpt lat="43.21535" lon="6.33923">
        <ele>479.0625</ele>
        <time>2012-12-30T11:00:58Z</time>
      </trkpt>
      <trkpt lat="43.21501" lon="6.3388">
        <ele>478.83984375</ele>
        <time>2012-12-30T11:01:12Z</time>
      </trkpt>
      <trkpt lat="43.21477" lon="6.33837">
        <ele>478.0703125</ele>
        <time>2012-12-30T11:01:27Z</time>
      </trkpt>
      <trkpt lat="43.21459" lon="6.33804">
        <ele>477.296875</ele>
        <time>2012-12-30T11:01:34Z</time>
      </trkpt>
      <trkpt lat="43.21456" lon="6.33797">
        <ele>476.79296875</ele>
        <time>2012-12-30T11:01:46Z</time>
      </trkpt>
      <trkpt lat="43.21456" lon="6.33797">
        <ele>476.79296875</ele>
        <time>2012-12-30T11:01:49Z</time>
      </trkpt>
      <trkpt lat="43.21456" lon="6.33795">
        <ele>476.52734375</ele>
        <time>2012-12-30T11:01:52Z</time>
      </trkpt>
      <trkpt lat="43.21453" lon="6.33795">
        <ele>476.5703125</ele>
        <time>2012-12-30T11:02:01Z</time>
      </trkpt>
      <trkpt lat="43.21458" lon="6.338">
        <ele>476.98046875</ele>
        <time>2012-12-30T11:02:11Z</time>
      </trkpt>
      <trkpt lat="43.21459" lon="6.33797">
        <ele>476.73046875</ele>
        <time>2012-12-30T11:02:12Z</time>
      </trkpt>
      <trkpt lat="43.21471" lon="6.33779">
        <ele>475.62109375</ele>
        <time>2012-12-30T11:02:20Z</time>
      </trkpt>
      <trkpt lat="43.21472" lon="6.33774">
        <ele>475.328125</ele>
        <time>2012-12-30T11:02:36Z</time>
      </trkpt>
      <trkpt lat="43.21472" lon="6.33774">
        <ele>475.3359375</ele>
        <time>2012-12-30T11:03:26Z</time>
      </trkpt>
      <trkpt lat="43.2149" lon="6.33755">
        <ele>474.14453125</ele>
        <time>2012-12-30T11:03:36Z</time>
      </trkpt>
      <trkpt lat="43.21512" lon="6.33732">
        <ele>473.265625</ele>
        <time>2012-12-30T11:03:48Z</time>
      </trkpt>
      <trkpt lat="43.21526" lon="6.33718">
        <ele>472.9296875</ele>
        <time>2012-12-30T11:03:56Z</time>
      </trkpt>
      <trkpt lat="43.21555" lon="6.33684">
        <ele>472.53125</ele>
        <time>2012-12-30T11:04:13Z</time>
      </trkpt>
      <trkpt lat="43.21594" lon="6.33665">
        <ele>474.1796875</ele>
        <time>2012-12-30T11:04:29Z</time>
      </trkpt>
      <trkpt lat="43.21628" lon="6.33647">
        <ele>476.31640625</ele>
        <time>2012-12-30T11:04:45Z</time>
      </trkpt>
      <trkpt lat="43.21638" lon="6.33642">
        <ele>477.28515625</ele>
        <time>2012-12-30T11:04:52Z</time>
      </trkpt>
      <trkpt lat="43.21643" lon="6.33613">
        <ele>477.72265625</ele>
        <time>2012-12-30T11:05:06Z</time>
      </trkpt>
      <trkpt lat="43.21644" lon="6.33594">
        <ele>477.8203125</ele>
        <time>2012-12-30T11:05:16Z</time>
      </trkpt>
      <trkpt lat="43.21644" lon="6.33573">
        <ele>477.3125</ele>
        <time>2012-12-30T11:06:23Z</time>
      </trkpt>
      <trkpt lat="43.21653" lon="6.33556">
        <ele>478.609375</ele>
        <time>2012-12-30T11:06:31Z</time>
      </trkpt>
      <trkpt lat="43.21651" lon="6.33554">
        <ele>478.1953125</ele>
        <time>2012-12-30T11:06:41Z</time>
      </trkpt>
      <trkpt lat="43.21647" lon="6.33549">
        <ele>477.1796875</ele>
        <time>2012-12-30T11:06:45Z</time>
      </trkpt>
      <trkpt lat="43.21648" lon="6.33525">
        <ele>476.37890625</ele>
        <time>2012-12-30T11:06:56Z</time>
      </trkpt>
      <trkpt lat="43.21649" lon="6.33517">
        <ele>476.08984375</ele>
        <time>2012-12-30T11:07:06Z</time>
      </trkpt>
      <trkpt lat="43.21652" lon="6.33505">
        <ele>476.00390625</ele>
        <time>2012-12-30T11:07:10Z</time>
      </trkpt>
      <trkpt lat="43.21661" lon="6.33477">
        <ele>474.375</ele>
        <time>2012-12-30T11:07:20Z</time>
      </trkpt>
      <trkpt lat="43.21673" lon="6.33462">
        <ele>474.234375</ele>
        <time>2012-12-30T11:07:31Z</time>
      </trkpt>
      <trkpt lat="43.21681" lon="6.33456">
        <ele>474.8359375</ele>
        <time>2012-12-30T11:07:40Z</time>
      </trkpt>
      <trkpt lat="43.2169" lon="6.33451">
        <ele>475.73046875</ele>
        <time>2012-12-30T11:07:54Z</time>
      </trkpt>
      <trkpt lat="43.21692" lon="6.33447">
        <ele>475.078125</ele>
        <time>2012-12-30T11:07:58Z</time>
      </trkpt>
      <trkpt lat="43.21693" lon="6.33443">
        <ele>474.2265625</ele>
        <time>2012-12-30T11:08:05Z</time>
      </trkpt>
      <trkpt lat="43.21698" lon="6.33438">
        <ele>474.0546875</ele>
        <time>2012-12-30T11:08:17Z</time>
      </trkpt>
      <trkpt lat="43.21709" lon="6.33428">
        <ele>473.84375</ele>
        <time>2012-12-30T11:08:24Z</time>
      </trkpt>
      <trkpt lat="43.21721" lon="6.33419">
        <ele>473.45703125</ele>
        <time>2012-12-30T11:08:30Z</time>
      </trkpt>
      <trkpt lat="43.21726" lon="6.33416">
        <ele>472.94921875</ele>
        <time>2012-12-30T11:08:32Z</time>
      </trkpt>
      <trkpt lat="43.21736" lon="6.33412">
        <ele>473.921875</ele>
        <time>2012-12-30T11:08:36Z</time>
      </trkpt>
      <trkpt lat="43.21743" lon="6.33405">
        <ele>472.484375</ele>
        <time>2012-12-30T11:08:40Z</time>
      </trkpt>
      <trkpt lat="43.21757" lon="6.3339">
        <ele>470.67578125</ele>
        <time>2012-12-30T11:08:46Z</time>
      </trkpt>
      <trkpt lat="43.21761" lon="6.33387">
        <ele>470.69921875</ele>
        <time>2012-12-30T11:08:47Z</time>
      </trkpt>
      <trkpt lat="43.2177" lon="6.33379">
        <ele>470.25390625</ele>
        <time>2012-12-30T11:08:51Z</time>
      </trkpt>
      <trkpt lat="43.21776" lon="6.33374">
        <ele>470.4921875</ele>
        <time>2012-12-30T11:08:58Z</time>
      </trkpt>
      <trkpt lat="43.21781" lon="6.33371">
        <ele>471.0703125</ele>
        <time>2012-12-30T11:09:04Z</time>
      </trkpt>
      <trkpt lat="43.21786" lon="6.33363">
        <ele>468.765625</ele>
        <time>2012-12-30T11:09:20Z</time>
      </trkpt>
      <trkpt lat="43.21792" lon="6.3336">
        <ele>468.5859375</ele>
        <time>2012-12-30T11:09:24Z</time>
      </trkpt>
      <trkpt lat="43.21795" lon="6.33357">
        <ele>467.8359375</ele>
        <time>2012-12-30T11:09:27Z</time>
      </trkpt>
      <trkpt lat="43.21809" lon="6.33348">
        <ele>466.234375</ele>
        <time>2012-12-30T11:09:38Z</time>
      </trkpt>
      <trkpt lat="43.21811" lon="6.33345">
        <ele>465.3515625</ele>
        <time>2012-12-30T11:09:40Z</time>
      </trkpt>
      <trkpt lat="43.21815" lon="6.33339">
        <ele>463.71484375</ele>
        <time>2012-12-30T11:09:43Z</time>
      </trkpt>
      <trkpt lat="43.21818" lon="6.33333">
        <ele>462.15234375</ele>
        <time>2012-12-30T11:09:45Z</time>
      </trkpt>
      <trkpt lat="43.21833" lon="6.33318">
        <ele>463.16796875</ele>
        <time>2012-12-30T11:09:54Z</time>
      </trkpt>
      <trkpt lat="43.21838" lon="6.33309">
        <ele>462.390625</ele>
        <time>2012-12-30T11:10:13Z</time>
      </trkpt>
      <trkpt lat="43.21842" lon="6.33295">
        <ele>461.78125</ele>
        <time>2012-12-30T11:10:27Z</time>
      </trkpt>
      <trkpt lat="43.21849" lon="6.33285">
        <ele>462.7109375</ele>
        <time>2012-12-30T11:10:39Z</time>
      </trkpt>
      <trkpt lat="43.21852" lon="6.3328">
        <ele>463.1640625</ele>
        <time>2012-12-30T11:10:46Z</time>
      </trkpt>
      <trkpt lat="43.21852" lon="6.33275">
        <ele>461.91796875</ele>
        <time>2012-12-30T11:10:59Z</time>
      </trkpt>
      <trkpt lat="43.21852" lon="6.33275">
        <ele>461.90625</ele>
        <time>2012-12-30T11:11:00Z</time>
      </trkpt>
      <trkpt lat="43.21867" lon="6.33237">
        <ele>457.2890625</ele>
        <time>2012-12-30T11:11:09Z</time>
      </trkpt>
      <trkpt lat="43.21869" lon="6.33231">
        <ele>455.9609375</ele>
        <time>2012-12-30T11:11:10Z</time>
      </trkpt>
      <trkpt lat="43.21904" lon="6.33205">
        <ele>450.9609375</ele>
        <time>2012-12-30T11:11:18Z</time>
      </trkpt>
      <trkpt lat="43.21946" lon="6.33213">
        <ele>448.2578125</ele>
        <time>2012-12-30T11:11:31Z</time>
      </trkpt>
      <trkpt lat="43.21983" lon="6.3324">
        <ele>450.0859375</ele>
        <time>2012-12-30T11:11:44Z</time>
      </trkpt>
      <trkpt lat="43.21988" lon="6.33244">
        <ele>450.6484375</ele>
        <time>2012-12-30T11:11:47Z</time>
      </trkpt>
      <trkpt lat="43.22007" lon="6.33258">
        <ele>452.57421875</ele>
        <time>2012-12-30T11:11:59Z</time>
      </trkpt>
      <trkpt lat="43.22032" lon="6.33269">
        <ele>455.67578125</ele>
        <time>2012-12-30T11:12:08Z</time>
      </trkpt>
      <trkpt lat="43.22038" lon="6.33271">
        <ele>457.0625</ele>
        <time>2012-12-30T11:12:09Z</time>
      </trkpt>
      <trkpt lat="43.22065" lon="6.33278">
        <ele>462.68359375</ele>
        <time>2012-12-30T11:12:15Z</time>
      </trkpt>
      <trkpt lat="43.22081" lon="6.3328">
        <ele>467.1640625</ele>
        <time>2012-12-30T11:12:21Z</time>
      </trkpt>
      <trkpt lat="43.22107" lon="6.3327">
        <ele>470.97265625</ele>
        <time>2012-12-30T11:12:33Z</time>
      </trkpt>
      <trkpt lat="43.22111" lon="6.33266">
        <ele>470.91796875</ele>
        <time>2012-12-30T11:12:36Z</time>
      </trkpt>
      <trkpt lat="43.22118" lon="6.33253">
        <ele>469.30078125</ele>
        <time>2012-12-30T11:12:45Z</time>
      </trkpt>
      <trkpt lat="43.22145" lon="6.33224">
        <ele>467.48046875</ele>
        <time>2012-12-30T11:13:09Z</time>
      </trkpt>
      <trkpt lat="43.22174" lon="6.33211">
        <ele>466.3046875</ele>
        <time>2012-12-30T11:13:28Z</time>
      </trkpt>
      <trkpt lat="43.22194" lon="6.3321">
        <ele>467.18359375</ele>
        <time>2012-12-30T11:13:45Z</time>
      </trkpt>
      <trkpt lat="43.22205" lon="6.33206">
        <ele>466.27734375</ele>
        <time>2012-12-30T11:15:25Z</time>
      </trkpt>
      <trkpt lat="43.22209" lon="6.33205">
        <ele>466.1328125</ele>
        <time>2012-12-30T11:15:26Z</time>
      </trkpt>
      <trkpt lat="43.22241" lon="6.33192">
        <ele>464.2265625</ele>
        <time>2012-12-30T11:15:34Z</time>
      </trkpt>
      <trkpt lat="43.22262" lon="6.33179">
        <ele>462.58984375</ele>
        <time>2012-12-30T11:15:40Z</time>
      </trkpt>
      <trkpt lat="43.22277" lon="6.33161">
        <ele>459.375</ele>
        <time>2012-12-30T11:15:47Z</time>
      </trkpt>
      <trkpt lat="43.2228" lon="6.33156">
        <ele>458.51953125</ele>
        <time>2012-12-30T11:15:48Z</time>
      </trkpt>
      <trkpt lat="43.22293" lon="6.3314">
        <ele>455.359375</ele>
        <time>2012-12-30T11:15:52Z</time>
      </trkpt>
      <trkpt lat="43.223" lon="6.33129">
        <ele>452.99609375</ele>
        <time>2012-12-30T11:15:54Z</time>
      </trkpt>
      <trkpt lat="43.22309" lon="6.33107">
        <ele>448.82421875</ele>
        <time>2012-12-30T11:15:58Z</time>
      </trkpt>
      <trkpt lat="43.22315" lon="6.33092">
        <ele>445.4296875</ele>
        <time>2012-12-30T11:16:01Z</time>
      </trkpt>
      <trkpt lat="43.22334" lon="6.33076">
        <ele>439.94921875</ele>
        <time>2012-12-30T11:16:08Z</time>
      </trkpt>
      <trkpt lat="43.22341" lon="6.33072">
        <ele>438.0078125</ele>
        <time>2012-12-30T11:16:11Z</time>
      </trkpt>
      <trkpt lat="43.2235" lon="6.33062">
        <ele>434.92578125</ele>
        <time>2012-12-30T11:16:14Z</time>
      </trkpt>
      <trkpt lat="43.22355" lon="6.3302">
        <ele>427.421875</ele>
        <time>2012-12-30T11:16:20Z</time>
      </trkpt>
      <trkpt lat="43.22355" lon="6.32992">
        <ele>423.35546875</ele>
        <time>2012-12-30T11:16:23Z</time>
      </trkpt>
      <trkpt lat="43.22354" lon="6.32972">
        <ele>420.49609375</ele>
        <time>2012-12-30T11:16:26Z</time>
      </trkpt>
      <trkpt lat="43.22355" lon="6.32959">
        <ele>417.984375</ele>
        <time>2012-12-30T11:16:28Z</time>
      </trkpt>
      <trkpt lat="43.22348" lon="6.32941">
        <ele>417.52734375</ele>
        <time>2012-12-30T11:16:31Z</time>
      </trkpt>
      <trkpt lat="43.22343" lon="6.32927">
        <ele>417.31640625</ele>
        <time>2012-12-30T11:16:33Z</time>
      </trkpt>
      <trkpt lat="43.22337" lon="6.32894">
        <ele>414.5390625</ele>
        <time>2012-12-30T11:16:37Z</time>
      </trkpt>
      <trkpt lat="43.22335" lon="6.32879">
        <ele>412.52734375</ele>
        <time>2012-12-30T11:16:39Z</time>
      </trkpt>
      <trkpt lat="43.2232" lon="6.32856">
        <ele>411.36328125</ele>
        <time>2012-12-30T11:16:44Z</time>
      </trkpt>
      <trkpt lat="43.22312" lon="6.3285">
        <ele>411.59375</ele>
        <time>2012-12-30T11:16:46Z</time>
      </trkpt>
      <trkpt lat="43.22304" lon="6.32832">
        <ele>408.671875</ele>
        <time>2012-12-30T11:16:50Z</time>
      </trkpt>
      <trkpt lat="43.22302" lon="6.32826">
        <ele>407.125</ele>
        <time>2012-12-30T11:16:52Z</time>
      </trkpt>
      <trkpt lat="43.22306" lon="6.32823">
        <ele>406.0703125</ele>
        <time>2012-12-30T11:17:03Z</time>
      </trkpt>
      <trkpt lat="43.22306" lon="6.32823">
        <ele>406.04296875</ele>
        <time>2012-12-30T11:17:19Z</time>
      </trkpt>
      <trkpt lat="43.22311" lon="6.32825">
        <ele>405.9609375</ele>
        <time>2012-12-30T11:17:22Z</time>
      </trkpt>
      <trkpt lat="43.22329" lon="6.32815">
        <ele>401.33984375</ele>
        <time>2012-12-30T11:17:27Z</time>
      </trkpt>
      <trkpt lat="43.22348" lon="6.32811">
        <ele>398.05078125</ele>
        <time>2012-12-30T11:17:30Z</time>
      </trkpt>
      <trkpt lat="43.22375" lon="6.32816">
        <ele>393.9140625</ele>
        <time>2012-12-30T11:17:36Z</time>
      </trkpt>
      <trkpt lat="43.2238" lon="6.32818">
        <ele>392.921875</ele>
        <time>2012-12-30T11:17:37Z</time>
      </trkpt>
      <trkpt lat="43.22403" lon="6.32814">
        <ele>386.6328125</ele>
        <time>2012-12-30T11:17:41Z</time>
      </trkpt>
      <trkpt lat="43.22409" lon="6.32813">
        <ele>385.17578125</ele>
        <time>2012-12-30T11:17:42Z</time>
      </trkpt>
      <trkpt lat="43.22434" lon="6.32811">
        <ele>379.390625</ele>
        <time>2012-12-30T11:17:46Z</time>
      </trkpt>
      <trkpt lat="43.2245" lon="6.32809">
        <ele>375.953125</ele>
        <time>2012-12-30T11:17:49Z</time>
      </trkpt>
      <trkpt lat="43.2247" lon="6.32799">
        <ele>369.48046875</ele>
        <time>2012-12-30T11:17:53Z</time>
      </trkpt>
      <trkpt lat="43.22475" lon="6.32797">
        <ele>368.125</ele>
        <time>2012-12-30T11:17:54Z</time>
      </trkpt>
      <trkpt lat="43.22489" lon="6.32791">
        <ele>365.21484375</ele>
        <time>2012-12-30T11:17:57Z</time>
      </trkpt>
      <trkpt lat="43.2251" lon="6.32795">
        <ele>361.1484375</ele>
        <time>2012-12-30T11:18:01Z</time>
      </trkpt>
      <trkpt lat="43.22515" lon="6.32795">
        <ele>360.24609375</ele>
        <time>2012-12-30T11:18:02Z</time>
      </trkpt>
      <trkpt lat="43.22524" lon="6.32792">
        <ele>359.05859375</ele>
        <time>2012-12-30T11:18:05Z</time>
      </trkpt>
      <trkpt lat="43.2255" lon="6.32776">
        <ele>358.81640625</ele>
        <time>2012-12-30T11:18:18Z</time>
      </trkpt>
      <trkpt lat="43.22568" lon="6.32766">
        <ele>360.84765625</ele>
        <time>2012-12-30T11:18:29Z</time>
      </trkpt>
      <trkpt lat="43.22575" lon="6.32767">
        <ele>360.9296875</ele>
        <time>2012-12-30T11:18:34Z</time>
      </trkpt>
      <trkpt lat="43.22582" lon="6.32766">
        <ele>361.25390625</ele>
        <time>2012-12-30T11:18:49Z</time>
      </trkpt>
      <trkpt lat="43.22597" lon="6.32755">
        <ele>364.39453125</ele>
        <time>2012-12-30T11:19:03Z</time>
      </trkpt>
      <trkpt lat="43.22599" lon="6.32753">
        <ele>365.10546875</ele>
        <time>2012-12-30T11:19:12Z</time>
      </trkpt>
      <trkpt lat="43.22599" lon="6.32746">
        <ele>366.19140625</ele>
        <time>2012-12-30T11:19:33Z</time>
      </trkpt>
      <trkpt lat="43.22594" lon="6.32734">
        <ele>367.7109375</ele>
        <time>2012-12-30T11:19:55Z</time>
      </trkpt>
      <trkpt lat="43.22588" lon="6.32726">
        <ele>367.8671875</ele>
        <time>2012-12-30T11:19:58Z</time>
      </trkpt>
      <trkpt lat="43.22586" lon="6.32719">
        <ele>367.578125</ele>
        <time>2012-12-30T11:20:02Z</time>
      </trkpt>
      <trkpt lat="43.22604" lon="6.32688">
        <ele>369.953125</ele>
        <time>2012-12-30T11:20:12Z</time>
      </trkpt>
      <trkpt lat="43.22624" lon="6.32656">
        <ele>371.390625</ele>
        <time>2012-12-30T11:20:21Z</time>
      </trkpt>
      <trkpt lat="43.22636" lon="6.32623">
        <ele>372.98046875</ele>
        <time>2012-12-30T11:20:31Z</time>
      </trkpt>
      <trkpt lat="43.22647" lon="6.32595">
        <ele>375.3515625</ele>
        <time>2012-12-30T11:20:40Z</time>
      </trkpt>
      <trkpt lat="43.22664" lon="6.3255">
        <ele>378.9296875</ele>
        <time>2012-12-30T11:20:54Z</time>
      </trkpt>
      <trkpt lat="43.22666" lon="6.32546">
        <ele>379.6953125</ele>
        <time>2012-12-30T11:20:57Z</time>
      </trkpt>
      <trkpt lat="43.22668" lon="6.3254">
        <ele>380.12890625</ele>
        <time>2012-12-30T11:21:00Z</time>
      </trkpt>
      <trkpt lat="43.22678" lon="6.32526">
        <ele>383.40625</ele>
        <time>2012-12-30T11:21:13Z</time>
      </trkpt>
      <trkpt lat="43.22684" lon="6.32514">
        <ele>385.16015625</ele>
        <time>2012-12-30T11:21:29Z</time>
      </trkpt>
      <trkpt lat="43.2269" lon="6.32504">
        <ele>387.24609375</ele>
        <time>2012-12-30T11:21:50Z</time>
      </trkpt>
      <trkpt lat="43.22698" lon="6.32482">
        <ele>387.88671875</ele>
        <time>2012-12-30T11:22:00Z</time>
      </trkpt>
      <trkpt lat="43.2271" lon="6.32468">
        <ele>391.43359375</ele>
        <time>2012-12-30T11:22:07Z</time>
      </trkpt>
      <trkpt lat="43.22716" lon="6.32458">
        <ele>392.765625</ele>
        <time>2012-12-30T11:22:12Z</time>
      </trkpt>
      <trkpt lat="43.22731" lon="6.32422">
        <ele>393.890625</ele>
        <time>2012-12-30T11:22:25Z</time>
      </trkpt>
      <trkpt lat="43.2273" lon="6.32419">
        <ele>392.98828125</ele>
        <time>2012-12-30T11:22:37Z</time>
      </trkpt>
      <trkpt lat="43.22731" lon="6.32415">
        <ele>392.9140625</ele>
        <time>2012-12-30T11:22:43Z</time>
      </trkpt>
      <trkpt lat="43.2273" lon="6.32403">
        <ele>390.7578125</ele>
        <time>2012-12-30T11:22:47Z</time>
      </trkpt>
      <trkpt lat="43.22731" lon="6.32392">
        <ele>389.7109375</ele>
        <time>2012-12-30T11:22:57Z</time>
      </trkpt>
      <trkpt lat="43.22742" lon="6.32352">
        <ele>388.65234375</ele>
        <time>2012-12-30T11:23:10Z</time>
      </trkpt>
      <trkpt lat="43.22749" lon="6.32327">
        <ele>388.46484375</ele>
        <time>2012-12-30T11:23:18Z</time>
      </trkpt>
      <trkpt lat="43.22753" lon="6.32317">
        <ele>388.9921875</ele>
        <time>2012-12-30T11:23:22Z</time>
      </trkpt>
      <trkpt lat="43.22754" lon="6.3227">
        <ele>385.04296875</ele>
        <time>2012-12-30T11:23:34Z</time>
      </trkpt>
      <trkpt lat="43.22757" lon="6.32264">
        <ele>386.515625</ele>
        <time>2012-12-30T11:23:48Z</time>
      </trkpt>
      <trkpt lat="43.22757" lon="6.32259">
        <ele>386.8359375</ele>
        <time>2012-12-30T11:23:58Z</time>
      </trkpt>
      <trkpt lat="43.22757" lon="6.32251">
        <ele>386.8828125</ele>
        <time>2012-12-30T11:24:02Z</time>
      </trkpt>
      <trkpt lat="43.22755" lon="6.32209">
        <ele>385.37109375</ele>
        <time>2012-12-30T11:24:16Z</time>
      </trkpt>
      <trkpt lat="43.22749" lon="6.32174">
        <ele>382.203125</ele>
        <time>2012-12-30T11:24:25Z</time>
      </trkpt>
      <trkpt lat="43.22728" lon="6.32126">
        <ele>376.59765625</ele>
        <time>2012-12-30T11:24:38Z</time>
      </trkpt>
      <trkpt lat="43.22721" lon="6.32115">
        <ele>375.890625</ele>
        <time>2012-12-30T11:24:48Z</time>
      </trkpt>
      <trkpt lat="43.22717" lon="6.32108">
        <ele>375.3359375</ele>
        <time>2012-12-30T11:25:10Z</time>
      </trkpt>
      <trkpt lat="43.22714" lon="6.321">
        <ele>375.15234375</ele>
        <time>2012-12-30T11:25:14Z</time>
      </trkpt>
      <trkpt lat="43.22711" lon="6.32085">
        <ele>375.828125</ele>
        <time>2012-12-30T11:25:19Z</time>
      </trkpt>
      <trkpt lat="43.22727" lon="6.32047">
        <ele>380.6015625</ele>
        <time>2012-12-30T11:25:32Z</time>
      </trkpt>
      <trkpt lat="43.22746" lon="6.3201">
        <ele>382.1015625</ele>
        <time>2012-12-30T11:25:44Z</time>
      </trkpt>
      <trkpt lat="43.22753" lon="6.32">
        <ele>382.53125</ele>
        <time>2012-12-30T11:25:51Z</time>
      </trkpt>
      <trkpt lat="43.22757" lon="6.31996">
        <ele>382.63671875</ele>
        <time>2012-12-30T11:26:06Z</time>
      </trkpt>
      <trkpt lat="43.22762" lon="6.31983">
        <ele>381.109375</ele>
        <time>2012-12-30T11:26:19Z</time>
      </trkpt>
      <trkpt lat="43.22769" lon="6.31975">
        <ele>381.34375</ele>
        <time>2012-12-30T11:26:30Z</time>
      </trkpt>
      <trkpt lat="43.2278" lon="6.31969">
        <ele>383.3125</ele>
        <time>2012-12-30T11:26:37Z</time>
      </trkpt>
      <trkpt lat="43.2278" lon="6.31968">
        <ele>383.0546875</ele>
        <time>2012-12-30T11:26:40Z</time>
      </trkpt>
      <trkpt lat="43.22782" lon="6.31964">
        <ele>382.93359375</ele>
        <time>2012-12-30T11:26:43Z</time>
      </trkpt>
      <trkpt lat="43.22786" lon="6.31961">
        <ele>382.79296875</ele>
        <time>2012-12-30T11:26:47Z</time>
      </trkpt>
      <trkpt lat="43.22788" lon="6.31958">
        <ele>382.3046875</ele>
        <time>2012-12-30T11:26:49Z</time>
      </trkpt>
      <trkpt lat="43.22803" lon="6.31941">
        <ele>382.08984375</ele>
        <time>2012-12-30T11:26:58Z</time>
      </trkpt>
      <trkpt lat="43.22807" lon="6.31932">
        <ele>381.65625</ele>
        <time>2012-12-30T11:27:00Z</time>
      </trkpt>
      <trkpt lat="43.22812" lon="6.31914">
        <ele>380.1015625</ele>
        <time>2012-12-30T11:27:06Z</time>
      </trkpt>
      <trkpt lat="43.22811" lon="6.31909">
        <ele>379.33203125</ele>
        <time>2012-12-30T11:27:09Z</time>
      </trkpt>
      <trkpt lat="43.22813" lon="6.31902">
        <ele>378.41015625</ele>
        <time>2012-12-30T11:27:21Z</time>
      </trkpt>
      <trkpt lat="43.22812" lon="6.31899">
        <ele>378.03125</ele>
        <time>2012-12-30T11:27:39Z</time>
      </trkpt>
      <trkpt lat="43.22809" lon="6.31891">
        <ele>376.42578125</ele>
        <time>2012-12-30T11:27:51Z</time>
      </trkpt>
      <trkpt lat="43.22809" lon="6.31874">
        <ele>375.12890625</ele>
        <time>2012-12-30T11:28:06Z</time>
      </trkpt>
      <trkpt lat="43.22814" lon="6.31852">
        <ele>373.9765625</ele>
        <time>2012-12-30T11:28:17Z</time>
      </trkpt>
      <trkpt lat="43.22815" lon="6.31849">
        <ele>373.76171875</ele>
        <time>2012-12-30T11:28:18Z</time>
      </trkpt>
      <trkpt lat="43.22816" lon="6.31828">
        <ele>371.19140625</ele>
        <time>2012-12-30T11:28:23Z</time>
      </trkpt>
      <trkpt lat="43.2282" lon="6.31806">
        <ele>368.58984375</ele>
        <time>2012-12-30T11:28:29Z</time>
      </trkpt>
      <trkpt lat="43.22822" lon="6.31783">
        <ele>365.99609375</ele>
        <time>2012-12-30T11:28:40Z</time>
      </trkpt>
      <trkpt lat="43.22823" lon="6.31769">
        <ele>364.31640625</ele>
        <time>2012-12-30T11:28:44Z</time>
      </trkpt>
      <trkpt lat="43.2283" lon="6.31753">
        <ele>363.02734375</ele>
        <time>2012-12-30T11:28:49Z</time>
      </trkpt>
      <trkpt lat="43.22837" lon="6.3175">
        <ele>363.46875</ele>
        <time>2012-12-30T11:28:52Z</time>
      </trkpt>
      <trkpt lat="43.22847" lon="6.31745">
        <ele>361.7890625</ele>
        <time>2012-12-30T11:29:06Z</time>
      </trkpt>
      <trkpt lat="43.22848" lon="6.31745">
        <ele>361.671875</ele>
        <time>2012-12-30T11:29:19Z</time>
      </trkpt>
      <trkpt lat="43.22855" lon="6.31739">
        <ele>359.94921875</ele>
        <time>2012-12-30T11:29:23Z</time>
      </trkpt>
      <trkpt lat="43.22863" lon="6.31735">
        <ele>358.34375</ele>
        <time>2012-12-30T11:29:28Z</time>
      </trkpt>
      <trkpt lat="43.22868" lon="6.31739">
        <ele>357.5390625</ele>
        <time>2012-12-30T11:29:35Z</time>
      </trkpt>
      <trkpt lat="43.22876" lon="6.31733">
        <ele>353.9765625</ele>
        <time>2012-12-30T11:29:39Z</time>
      </trkpt>
      <trkpt lat="43.22884" lon="6.31721">
        <ele>349.265625</ele>
        <time>2012-12-30T11:29:43Z</time>
      </trkpt>
      <trkpt lat="43.22892" lon="6.31713">
        <ele>345.4375</ele>
        <time>2012-12-30T11:29:45Z</time>
      </trkpt>
      <trkpt lat="43.22898" lon="6.31706">
        <ele>342.16015625</ele>
        <time>2012-12-30T11:29:47Z</time>
      </trkpt>
      <trkpt lat="43.22904" lon="6.31675">
        <ele>336.8359375</ele>
        <time>2012-12-30T11:29:51Z</time>
      </trkpt>
      <trkpt lat="43.22905" lon="6.31668">
        <ele>335.984375</ele>
        <time>2012-12-30T11:29:52Z</time>
      </trkpt>
      <trkpt lat="43.22912" lon="6.31647">
        <ele>333.078125</ele>
        <time>2012-12-30T11:29:55Z</time>
      </trkpt>
      <trkpt lat="43.22915" lon="6.3164">
        <ele>332.08984375</ele>
        <time>2012-12-30T11:29:56Z</time>
      </trkpt>
      <trkpt lat="43.22925" lon="6.31597">
        <ele>329.234375</ele>
        <time>2012-12-30T11:30:04Z</time>
      </trkpt>
      <trkpt lat="43.22935" lon="6.31594">
        <ele>326.22265625</ele>
        <time>2012-12-30T11:30:08Z</time>
      </trkpt>
      <trkpt lat="43.2294" lon="6.31598">
        <ele>324.1875</ele>
        <time>2012-12-30T11:30:11Z</time>
      </trkpt>
      <trkpt lat="43.22942" lon="6.31605">
        <ele>322.78515625</ele>
        <time>2012-12-30T11:30:14Z</time>
      </trkpt>
      <trkpt lat="43.22958" lon="6.31604">
        <ele>317.11328125</ele>
        <time>2012-12-30T11:30:20Z</time>
      </trkpt>
      <trkpt lat="43.22966" lon="6.31605">
        <ele>314.43359375</ele>
        <time>2012-12-30T11:30:23Z</time>
      </trkpt>
      <trkpt lat="43.22972" lon="6.31599">
        <ele>313.09375</ele>
        <time>2012-12-30T11:30:26Z</time>
      </trkpt>
      <trkpt lat="43.22986" lon="6.31591">
        <ele>308.8828125</ele>
        <time>2012-12-30T11:30:31Z</time>
      </trkpt>
      <trkpt lat="43.2299" lon="6.31585">
        <ele>307.7734375</ele>
        <time>2012-12-30T11:30:33Z</time>
      </trkpt>
      <trkpt lat="43.23001" lon="6.31572">
        <ele>304.7109375</ele>
        <time>2012-12-30T11:30:38Z</time>
      </trkpt>
      <trkpt lat="43.23003" lon="6.31568">
        <ele>304.51171875</ele>
        <time>2012-12-30T11:30:39Z</time>
      </trkpt>
      <trkpt lat="43.23006" lon="6.31561">
        <ele>304.40625</ele>
        <time>2012-12-30T11:30:41Z</time>
      </trkpt>
      <trkpt lat="43.23018" lon="6.31555">
        <ele>301.8046875</ele>
        <time>2012-12-30T11:30:45Z</time>
      </trkpt>
      <trkpt lat="43.23049" lon="6.3153">
        <ele>299.5546875</ele>
        <time>2012-12-30T11:30:56Z</time>
      </trkpt>
      <trkpt lat="43.23055" lon="6.31527">
        <ele>298.5390625</ele>
        <time>2012-12-30T11:31:07Z</time>
      </trkpt>
      <trkpt lat="43.23064" lon="6.31525">
        <ele>297.2578125</ele>
        <time>2012-12-30T11:31:35Z</time>
      </trkpt>
      <trkpt lat="43.23079" lon="6.31525">
        <ele>296.17578125</ele>
        <time>2012-12-30T11:31:40Z</time>
      </trkpt>
      <trkpt lat="43.23095" lon="6.31522">
        <ele>295.1953125</ele>
        <time>2012-12-30T11:31:46Z</time>
      </trkpt>
      <trkpt lat="43.23118" lon="6.31533">
        <ele>292.1171875</ele>
        <time>2012-12-30T11:31:53Z</time>
      </trkpt>
      <trkpt lat="43.23129" lon="6.31533">
        <ele>290.375</ele>
        <time>2012-12-30T11:31:57Z</time>
      </trkpt>
      <trkpt lat="43.23138" lon="6.31537">
        <ele>287.9453125</ele>
        <time>2012-12-30T11:32:02Z</time>
      </trkpt>
      <trkpt lat="43.23146" lon="6.31535">
        <ele>286.5</ele>
        <time>2012-12-30T11:32:06Z</time>
      </trkpt>
      <trkpt lat="43.23152" lon="6.31533">
        <ele>285.109375</ele>
        <time>2012-12-30T11:32:14Z</time>
      </trkpt>
      <trkpt lat="43.2316" lon="6.31532">
        <ele>282.6484375</ele>
        <time>2012-12-30T11:32:36Z</time>
      </trkpt>
      <trkpt lat="43.23162" lon="6.31531">
        <ele>282.24609375</ele>
        <time>2012-12-30T11:32:42Z</time>
      </trkpt>
      <trkpt lat="43.2317" lon="6.3152">
        <ele>279.8671875</ele>
        <time>2012-12-30T11:32:51Z</time>
      </trkpt>
      <trkpt lat="43.23178" lon="6.31517">
        <ele>276.63671875</ele>
        <time>2012-12-30T11:32:56Z</time>
      </trkpt>
      <trkpt lat="43.2318" lon="6.3151">
        <ele>276.328125</ele>
        <time>2012-12-30T11:33:00Z</time>
      </trkpt>
      <trkpt lat="43.23186" lon="6.31497">
        <ele>274.59375</ele>
        <time>2012-12-30T11:33:04Z</time>
      </trkpt>
      <trkpt lat="43.23194" lon="6.31477">
        <ele>273.65625</ele>
        <time>2012-12-30T11:33:09Z</time>
      </trkpt>
      <trkpt lat="43.23206" lon="6.31466">
        <ele>271.48828125</ele>
        <time>2012-12-30T11:33:14Z</time>
      </trkpt>
      <trkpt lat="43.2323" lon="6.31445">
        <ele>269.56640625</ele>
        <time>2012-12-30T11:33:21Z</time>
      </trkpt>
      <trkpt lat="43.23236" lon="6.31438">
        <ele>268.98046875</ele>
        <time>2012-12-30T11:33:23Z</time>
      </trkpt>
      <trkpt lat="43.23249" lon="6.31438">
        <ele>266.92578125</ele>
        <time>2012-12-30T11:33:31Z</time>
      </trkpt>
      <trkpt lat="43.23257" lon="6.31445">
        <ele>265.17578125</ele>
        <time>2012-12-30T11:34:05Z</time>
      </trkpt>
      <trkpt lat="43.23264" lon="6.31448">
        <ele>263.96484375</ele>
        <time>2012-12-30T11:34:08Z</time>
      </trkpt>
      <trkpt lat="43.23272" lon="6.31443">
        <ele>263.7421875</ele>
        <time>2012-12-30T11:34:12Z</time>
      </trkpt>
      <trkpt lat="43.23282" lon="6.3144">
        <ele>263.01171875</ele>
        <time>2012-12-30T11:34:17Z</time>
      </trkpt>
      <trkpt lat="43.23289" lon="6.31442">
        <ele>261.07421875</ele>
        <time>2012-12-30T11:34:20Z</time>
      </trkpt>
      <trkpt lat="43.23291" lon="6.31441">
        <ele>260.7578125</ele>
        <time>2012-12-30T11:34:22Z</time>
      </trkpt>
      <trkpt lat="43.23298" lon="6.31436">
        <ele>259.625</ele>
        <time>2012-12-30T11:34:27Z</time>
      </trkpt>
      <trkpt lat="43.23299" lon="6.31436">
        <ele>259.32421875</ele>
        <time>2012-12-30T11:34:28Z</time>
      </trkpt>
      <trkpt lat="43.23307" lon="6.31434">
        <ele>257.99609375</ele>
        <time>2012-12-30T11:34:32Z</time>
      </trkpt>
      <trkpt lat="43.23315" lon="6.31426">
        <ele>256.8515625</ele>
        <time>2012-12-30T11:34:40Z</time>
      </trkpt>
      <trkpt lat="43.23318" lon="6.31423">
        <ele>256.49609375</ele>
        <time>2012-12-30T11:34:48Z</time>
      </trkpt>
      <trkpt lat="43.23319" lon="6.3142">
        <ele>256.4453125</ele>
        <time>2012-12-30T11:34:51Z</time>
      </trkpt>
      <trkpt lat="43.23321" lon="6.31419">
        <ele>255.984375</ele>
        <time>2012-12-30T11:34:56Z</time>
      </trkpt>
      <trkpt lat="43.23334" lon="6.31416">
        <ele>252.5625</ele>
        <time>2012-12-30T11:35:02Z</time>
      </trkpt>
      <trkpt lat="43.23348" lon="6.3141">
        <ele>248.0859375</ele>
        <time>2012-12-30T11:35:08Z</time>
      </trkpt>
      <trkpt lat="43.23355" lon="6.31402">
        <ele>246.06640625</ele>
        <time>2012-12-30T11:35:11Z</time>
      </trkpt>
      <trkpt lat="43.23365" lon="6.31394">
        <ele>242.97265625</ele>
        <time>2012-12-30T11:35:15Z</time>
      </trkpt>
      <trkpt lat="43.23377" lon="6.31385">
        <ele>237.9296875</ele>
        <time>2012-12-30T11:35:20Z</time>
      </trkpt>
      <trkpt lat="43.23384" lon="6.31385">
        <ele>235.25390625</ele>
        <time>2012-12-30T11:35:32Z</time>
      </trkpt>
      <trkpt lat="43.23389" lon="6.31389">
        <ele>233.0546875</ele>
        <time>2012-12-30T11:35:53Z</time>
      </trkpt>
      <trkpt lat="43.23392" lon="6.31391">
        <ele>231.59765625</ele>
        <time>2012-12-30T11:36:03Z</time>
      </trkpt>
      <trkpt lat="43.23395" lon="6.31396">
        <ele>230.16015625</ele>
        <time>2012-12-30T11:36:10Z</time>
      </trkpt>
      <trkpt lat="43.23397" lon="6.31397">
        <ele>229.2265625</ele>
        <time>2012-12-30T11:36:12Z</time>
      </trkpt>
      <trkpt lat="43.23403" lon="6.31395">
        <ele>226.76953125</ele>
        <time>2012-12-30T11:36:16Z</time>
      </trkpt>
      <trkpt lat="43.23409" lon="6.31392">
        <ele>224.3671875</ele>
        <time>2012-12-30T11:36:28Z</time>
      </trkpt>
      <trkpt lat="43.23417" lon="6.31388">
        <ele>221.0546875</ele>
        <time>2012-12-30T11:36:37Z</time>
      </trkpt>
      <trkpt lat="43.2342" lon="6.31385">
        <ele>220.27734375</ele>
        <time>2012-12-30T11:36:38Z</time>
      </trkpt>
      <trkpt lat="43.23425" lon="6.31379">
        <ele>218.44921875</ele>
        <time>2012-12-30T11:36:40Z</time>
      </trkpt>
      <trkpt lat="43.23428" lon="6.31373">
        <ele>217.53125</ele>
        <time>2012-12-30T11:36:43Z</time>
      </trkpt>
      <trkpt lat="43.23434" lon="6.31364">
        <ele>215.72265625</ele>
        <time>2012-12-30T11:36:47Z</time>
      </trkpt>
      <trkpt lat="43.23439" lon="6.31363">
        <ele>213.67578125</ele>
        <time>2012-12-30T11:36:50Z</time>
      </trkpt>
      <trkpt lat="43.23442" lon="6.31359">
        <ele>212.5546875</ele>
        <time>2012-12-30T11:36:52Z</time>
      </trkpt>
      <trkpt lat="43.23446" lon="6.31352">
        <ele>211.83984375</ele>
        <time>2012-12-30T11:36:54Z</time>
      </trkpt>
      <trkpt lat="43.23456" lon="6.31343">
        <ele>208.07421875</ele>
        <time>2012-12-30T11:36:58Z</time>
      </trkpt>
      <trkpt lat="43.23462" lon="6.31338">
        <ele>205.33984375</ele>
        <time>2012-12-30T11:37:02Z</time>
      </trkpt>
      <trkpt lat="43.23473" lon="6.31326">
        <ele>201.97265625</ele>
        <time>2012-12-30T11:37:06Z</time>
      </trkpt>
      <trkpt lat="43.23485" lon="6.31304">
        <ele>200.91015625</ele>
        <time>2012-12-30T11:37:10Z</time>
      </trkpt>
      <trkpt lat="43.23486" lon="6.31297">
        <ele>201.19140625</ele>
        <time>2012-12-30T11:37:18Z</time>
      </trkpt>
      <trkpt lat="43.23488" lon="6.31296">
        <ele>201.03515625</ele>
        <time>2012-12-30T11:37:20Z</time>
      </trkpt>
      <trkpt lat="43.2349" lon="6.31293">
        <ele>200.51171875</ele>
        <time>2012-12-30T11:37:40Z</time>
      </trkpt>
      <trkpt lat="43.23507" lon="6.31287">
        <ele>196.234375</ele>
        <time>2012-12-30T11:38:00Z</time>
      </trkpt>
      <trkpt lat="43.23521" lon="6.31273">
        <ele>193.0625</ele>
        <time>2012-12-30T11:38:04Z</time>
      </trkpt>
      <trkpt lat="43.23529" lon="6.31265">
        <ele>191.640625</ele>
        <time>2012-12-30T11:38:07Z</time>
      </trkpt>
      <trkpt lat="43.23542" lon="6.31242">
        <ele>190.515625</ele>
        <time>2012-12-30T11:38:11Z</time>
      </trkpt>
      <trkpt lat="43.23555" lon="6.3123">
        <ele>187.55859375</ele>
        <time>2012-12-30T11:38:14Z</time>
      </trkpt>
      <trkpt lat="43.23563" lon="6.31222">
        <ele>186</ele>
        <time>2012-12-30T11:38:17Z</time>
      </trkpt>
      <trkpt lat="43.23578" lon="6.31217">
        <ele>182.70703125</ele>
        <time>2012-12-30T11:38:20Z</time>
      </trkpt>
      <trkpt lat="43.23585" lon="6.31214">
        <ele>181.66796875</ele>
        <time>2012-12-30T11:38:21Z</time>
      </trkpt>
      <trkpt lat="43.23611" lon="6.312">
        <ele>179.4921875</ele>
        <time>2012-12-30T11:38:26Z</time>
      </trkpt>
      <trkpt lat="43.23642" lon="6.31193">
        <ele>174.125</ele>
        <time>2012-12-30T11:38:31Z</time>
      </trkpt>
      <trkpt lat="43.23667" lon="6.31188">
        <ele>169.41015625</ele>
        <time>2012-12-30T11:38:38Z</time>
      </trkpt>
      <trkpt lat="43.2368" lon="6.31175">
        <ele>169.11328125</ele>
        <time>2012-12-30T11:38:49Z</time>
      </trkpt>
      <trkpt lat="43.23684" lon="6.31174">
        <ele>168.8046875</ele>
        <time>2012-12-30T11:38:51Z</time>
      </trkpt>
      <trkpt lat="43.23686" lon="6.31173">
        <ele>168.5</ele>
        <time>2012-12-30T11:38:52Z</time>
      </trkpt>
      <trkpt lat="43.23691" lon="6.31163">
        <ele>169.5625</ele>
        <time>2012-12-30T11:38:55Z</time>
      </trkpt>
      <trkpt lat="43.23683" lon="6.31155">
        <ele>171.90234375</ele>
        <time>2012-12-30T11:38:59Z</time>
      </trkpt>
      <trkpt lat="43.23666" lon="6.3114">
        <ele>176.05078125</ele>
        <time>2012-12-30T11:39:10Z</time>
      </trkpt>
      <trkpt lat="43.23654" lon="6.31126">
        <ele>178.53515625</ele>
        <time>2012-12-30T11:39:19Z</time>
      </trkpt>
      <trkpt lat="43.23652" lon="6.31125">
        <ele>178.921875</ele>
        <time>2012-12-30T11:39:27Z</time>
      </trkpt>
      <trkpt lat="43.23666" lon="6.3114">
        <ele>176.1640625</ele>
        <time>2012-12-30T11:39:36Z</time>
      </trkpt>
      <trkpt lat="43.23674" lon="6.31155">
        <ele>172.91796875</ele>
        <time>2012-12-30T11:39:43Z</time>
      </trkpt>
      <trkpt lat="43.23675" lon="6.31152">
        <ele>173.37109375</ele>
        <time>2012-12-30T11:39:47Z</time>
      </trkpt>
      <trkpt lat="43.23667" lon="6.31144">
        <ele>175.60546875</ele>
        <time>2012-12-30T11:39:52Z</time>
      </trkpt>
      <trkpt lat="43.2366" lon="6.31132">
        <ele>177.57421875</ele>
        <time>2012-12-30T11:39:56Z</time>
      </trkpt>
      <trkpt lat="43.23634" lon="6.3111">
        <ele>180.140625</ele>
        <time>2012-12-30T11:40:01Z</time>
      </trkpt>
      <trkpt lat="43.23621" lon="6.31099">
        <ele>179.6640625</ele>
        <time>2012-12-30T11:40:03Z</time>
      </trkpt>
      <trkpt lat="43.23597" lon="6.31086">
        <ele>179.5546875</ele>
        <time>2012-12-30T11:40:08Z</time>
      </trkpt>
      <trkpt lat="43.23603" lon="6.31076">
        <ele>175.90625</ele>
        <time>2012-12-30T11:40:12Z</time>
      </trkpt>
      <trkpt lat="43.23611" lon="6.31076">
        <ele>174.92578125</ele>
        <time>2012-12-30T11:40:14Z</time>
      </trkpt>
      <trkpt lat="43.23616" lon="6.31076">
        <ele>174.46875</ele>
        <time>2012-12-30T11:40:15Z</time>
      </trkpt>
      <trkpt lat="43.2363" lon="6.31069">
        <ele>171.8984375</ele>
        <time>2012-12-30T11:40:22Z</time>
      </trkpt>
      <trkpt lat="43.23632" lon="6.31071">
        <ele>172.4140625</ele>
        <time>2012-12-30T11:40:24Z</time>
      </trkpt>
      <trkpt lat="43.23641" lon="6.31089">
        <ele>176.33984375</ele>
        <time>2012-12-30T11:40:37Z</time>
      </trkpt>
      <trkpt lat="43.23649" lon="6.31094">
        <ele>176.44140625</ele>
        <time>2012-12-30T11:40:49Z</time>
      </trkpt>
      <trkpt lat="43.23648" lon="6.31093">
        <ele>176.49609375</ele>
        <time>2012-12-30T11:40:53Z</time>
      </trkpt>
      <trkpt lat="43.23638" lon="6.31085">
        <ele>175.703125</ele>
        <time>2012-12-30T11:41:00Z</time>
      </trkpt>
      <trkpt lat="43.23627" lon="6.31063">
        <ele>170.51953125</ele>
        <time>2012-12-30T11:41:08Z</time>
      </trkpt>
      <trkpt lat="43.23633" lon="6.31037">
        <ele>166.1015625</ele>
        <time>2012-12-30T11:41:17Z</time>
      </trkpt>
      <trkpt lat="43.23601" lon="6.31015">
        <ele>165.171875</ele>
        <time>2012-12-30T11:41:28Z</time>
      </trkpt>
      <trkpt lat="43.23569" lon="6.3101">
        <ele>167.04296875</ele>
        <time>2012-12-30T11:41:42Z</time>
      </trkpt>
      <trkpt lat="43.23566" lon="6.31009">
        <ele>167.08203125</ele>
        <time>2012-12-30T11:41:44Z</time>
      </trkpt>
      <trkpt lat="43.23522" lon="6.30983">
        <ele>167.07421875</ele>
        <time>2012-12-30T11:42:00Z</time>
      </trkpt>
      <trkpt lat="43.23521" lon="6.30968">
        <ele>165.4453125</ele>
        <time>2012-12-30T11:42:04Z</time>
      </trkpt>
      <trkpt lat="43.23512" lon="6.30937">
        <ele>162.875</ele>
        <time>2012-12-30T11:42:10Z</time>
      </trkpt>
      <trkpt lat="43.23508" lon="6.30912">
        <ele>161.23046875</ele>
        <time>2012-12-30T11:42:13Z</time>
      </trkpt>
      <trkpt lat="43.23506" lon="6.30891">
        <ele>159.8046875</ele>
        <time>2012-12-30T11:42:16Z</time>
      </trkpt>
      <trkpt lat="43.23513" lon="6.30849">
        <ele>157.49609375</ele>
        <time>2012-12-30T11:42:23Z</time>
      </trkpt>
      <trkpt lat="43.23527" lon="6.30751">
        <ele>156.11328125</ele>
        <time>2012-12-30T11:42:40Z</time>
      </trkpt>
      <trkpt lat="43.23532" lon="6.30706">
        <ele>155.015625</ele>
        <time>2012-12-30T11:42:49Z</time>
      </trkpt>
      <trkpt lat="43.23529" lon="6.30624">
        <ele>154.2578125</ele>
        <time>2012-12-30T11:43:03Z</time>
      </trkpt>
      <trkpt lat="43.2353" lon="6.30568">
        <ele>153.1484375</ele>
        <time>2012-12-30T11:43:15Z</time>
      </trkpt>
      <trkpt lat="43.23531" lon="6.30494">
        <ele>152.15234375</ele>
        <time>2012-12-30T11:43:33Z</time>
      </trkpt>
      <trkpt lat="43.23539" lon="6.30436">
        <ele>152.6328125</ele>
        <time>2012-12-30T11:43:43Z</time>
      </trkpt>
      <trkpt lat="43.2356" lon="6.30381">
        <ele>151.98828125</ele>
        <time>2012-12-30T11:43:57Z</time>
      </trkpt>
      <trkpt lat="43.23569" lon="6.30355">
        <ele>151.9453125</ele>
        <time>2012-12-30T11:44:08Z</time>
      </trkpt>
      <trkpt lat="43.23589" lon="6.30322">
        <ele>150.9453125</ele>
        <time>2012-12-30T11:44:15Z</time>
      </trkpt>
      <trkpt lat="43.23609" lon="6.30289">
        <ele>149.50390625</ele>
        <time>2012-12-30T11:44:20Z</time>
      </trkpt>
      <trkpt lat="43.23627" lon="6.30266">
        <ele>148</ele>
        <time>2012-12-30T11:44:24Z</time>
      </trkpt>
      <trkpt lat="43.23634" lon="6.30254">
        <ele>147.359375</ele>
        <time>2012-12-30T11:44:26Z</time>
      </trkpt>
      <trkpt lat="43.23641" lon="6.30243">
        <ele>147.5625</ele>
        <time>2012-12-30T11:44:28Z</time>
      </trkpt>
      <trkpt lat="43.23649" lon="6.30222">
        <ele>148.171875</ele>
        <time>2012-12-30T11:44:32Z</time>
      </trkpt>
      <trkpt lat="43.23666" lon="6.30199">
        <ele>148.4921875</ele>
        <time>2012-12-30T11:44:38Z</time>
      </trkpt>
      <trkpt lat="43.23689" lon="6.30192">
        <ele>148.7890625</ele>
        <time>2012-12-30T11:44:45Z</time>
      </trkpt>
      <trkpt lat="43.23719" lon="6.30179">
        <ele>149.0703125</ele>
        <time>2012-12-30T11:44:56Z</time>
      </trkpt>
      <trkpt lat="43.23744" lon="6.30159">
        <ele>149.3046875</ele>
        <time>2012-12-30T11:45:06Z</time>
      </trkpt>
      <trkpt lat="43.23755" lon="6.30148">
        <ele>148.85546875</ele>
        <time>2012-12-30T11:45:10Z</time>
      </trkpt>
      <trkpt lat="43.23779" lon="6.30149">
        <ele>148.81640625</ele>
        <time>2012-12-30T11:45:17Z</time>
      </trkpt>
      <trkpt lat="43.23779" lon="6.30156">
        <ele>148.56640625</ele>
        <time>2012-12-30T11:45:18Z</time>
      </trkpt>
      <trkpt lat="43.23778" lon="6.30185">
        <ele>147.9296875</ele>
        <time>2012-12-30T11:45:22Z</time>
      </trkpt>
      <trkpt lat="43.23781" lon="6.30198">
        <ele>147.9765625</ele>
        <time>2012-12-30T11:45:24Z</time>
      </trkpt>
      <trkpt lat="43.2377" lon="6.30235">
        <ele>149.51171875</ele>
        <time>2012-12-30T11:45:33Z</time>
      </trkpt>
      <trkpt lat="43.23746" lon="6.30253">
        <ele>149.54296875</ele>
        <time>2012-12-30T11:45:44Z</time>
      </trkpt>
      <trkpt lat="43.23726" lon="6.30278">
        <ele>150.66015625</ele>
        <time>2012-12-30T11:46:00Z</time>
      </trkpt>
      <trkpt lat="43.23726" lon="6.30278">
        <ele>150.609375</ele>
        <time>2012-12-30T11:46:15Z</time>
      </trkpt>
      <trkpt lat="43.23725" lon="6.30278">
        <ele>150.65234375</ele>
        <time>2012-12-30T11:46:30Z</time>
      </trkpt>
      <trkpt lat="43.23725" lon="6.30278">
        <ele>150.65234375</ele>
        <time>2012-12-30T11:46:31Z</time>
      </trkpt>
      <trkpt lat="43.23725" lon="6.30277">
        <ele>150.5625</ele>
        <time>2012-12-30T11:46:33Z</time>
      </trkpt>
      <trkpt lat="43.23725" lon="6.30277">
        <ele>150.578125</ele>
        <time>2012-12-30T11:46:36Z</time>
      </trkpt>
    </trkseg>
  </trk>
</gpx>